Time,TemperatureF,DewpointF,PressureIn,WindDirection,WindDirectionDegrees,WindSpeedMPH,WindSpeedGustMPH,Humidity,HourlyPrecipIn,Conditions,Clouds,dailyrainin,SoftwareType,DateUTC
2013-02-01 00:06:00,36.0,19.6,28.79,West,280,8.1,8.1,51,0.00,CLR,,0.00,WeatherDisplay:10.37,2013-02-01 05:06:00,
2013-02-01 00:07:00,36.0,19.6,28.79,WSW,247,5.8,5.8,51,0.00,CLR,,0.00,WeatherDisplay:10.37,2013-02-01 05:07:00,
2013-02-01 00:08:00,36.0,19.6,28.79,West,276,8.1,8.1,51,0.00,CLR,,0.00,WeatherDisplay:10.37,2013-02-01 05:08:00,
2013-02-01 00:11:00,36.0,19.6,28.79,WSW,241,3.5,3.5,51,0.00,CLR,,0.00,WeatherDisplay:10.37,2013-02-01 05:11:00,
2013-02-01 00:12:00,36.0,19.6,28.79,WSW,250,3.5,3.5,51,0.00,CLR,,0.00,WeatherDisplay:10.37,2013-02-01 05:12:00,
2013-02-01 00:13:00,35.8,19.4,28.79,WNW,303,4.6,4.6,51,0.00,CLR,,0.00,WeatherDisplay:10.37,2013-02-01 05:13:00,
2013-02-01 00:16:00,35.8,19.4,28.79,South,178,4.6,0.0,51,0.00,CLR,,0.00,WeatherDisplay:10.37,2013-02-01 05:16:00,
2013-02-01 00:17:00,35.8,19.4,28.79,West,274,4.6,4.6,51,0.00,CLR,,0.00,WeatherDisplay:10.37,2013-02-01 05:17:00,
2013-02-01 00:18:00,35.8,19.4,28.79,WNW,303,5.8,5.8,51,0.00,CLR,,0.00,WeatherDisplay:10.37,2013-02-01 05:18:00,
2013-02-01 00:21:00,35.8,19.4,28.79,WNW,299,3.5,3.5,51,0.00,CLR,,0.00,WeatherDisplay:10.37,2013-02-01 05:21:00,
2013-02-01 00:22:00,35.8,19.4,28.79,West,270,4.0,4.0,51,0.00,CLR,,0.00,WeatherDisplay:10.37,2013-02-01 05:22:00,
2013-02-01 00:23:00,35.8,19.4,28.79,West,266,10.4,10.4,51,0.00,CLR,,0.00,WeatherDisplay:10.37,2013-02-01 05:23:00,
2013-02-01 00:26:00,35.8,19.4,28.79,WSW,253,4.9,4.9,51,0.00,CLR,,0.00,WeatherDisplay:10.37,2013-02-01 05:26:00,
2013-02-01 00:27:00,35.8,19.4,28.79,West,270,4.6,4.6,51,0.00,CLR,,0.00,WeatherDisplay:10.37,2013-02-01 05:27:00,
2013-02-01 00:28:00,35.8,19.4,28.79,WNW,282,3.5,3.5,51,0.00,CLR,,0.00,WeatherDisplay:10.37,2013-02-01 05:28:00,
2013-02-01 00:32:00,35.8,19.4,28.79,NW,317,6.9,6.9,51,0.00,CLR,,0.00,WeatherDisplay:10.37,2013-02-01 05:32:00,
2013-02-01 00:33:00,35.8,19.4,28.79,WNW,282,5.8,5.8,51,0.00,CLR,,0.00,WeatherDisplay:10.37,2013-02-01 05:33:00,
2013-02-01 00:37:00,35.8,19.4,28.79,West,269,2.7,0.0,51,0.00,CLR,,0.00,WeatherDisplay:10.37,2013-02-01 05:37:00,
2013-02-01 00:38:00,35.6,18.8,28.79,West,263,3.5,0.0,50,0.00,CLR,,0.00,WeatherDisplay:10.37,2013-02-01 05:38:00,
2013-02-01 00:39:00,35.6,18.8,28.79,WNW,286,3.5,3.5,50,0.00,CLR,,0.00,WeatherDisplay:10.37,2013-02-01 05:39:00,
2013-02-01 00:42:00,35.6,18.8,28.79,NW,317,3.5,3.5,50,0.00,CLR,,0.00,WeatherDisplay:10.37,2013-02-01 05:42:00,
2013-02-01 00:43:00,35.6,18.8,28.79,WSW,254,0.0,0.0,50,0.00,CLR,,0.00,WeatherDisplay:10.37,2013-02-01 05:43:00,
2013-02-01 00:44:00,35.6,18.8,28.79,WNW,287,0.0,0.0,50,0.00,CLR,,0.00,WeatherDisplay:10.37,2013-02-01 05:44:00,
2013-02-01 00:47:00,35.6,18.8,28.79,WNW,291,3.5,0.0,50,0.00,CLR,,0.00,WeatherDisplay:10.37,2013-02-01 05:47:00,
2013-02-01 00:48:00,35.6,18.8,28.79,West,279,3.5,0.0,50,0.00,CLR,,0.00,WeatherDisplay:10.37,2013-02-01 05:48:00,
2013-02-01 00:49:00,35.6,18.8,28.79,WSW,251,3.5,0.0,50,0.00,CLR,,0.00,WeatherDisplay:10.37,2013-02-01 05:49:00,
2013-02-01 00:52:00,35.6,18.8,28.79,WNW,293,3.5,0.0,50,0.00,CLR,,0.00,WeatherDisplay:10.37,2013-02-01 05:52:00,
2013-02-01 00:53:00,35.6,18.8,28.79,West,275,3.5,3.5,50,0.00,CLR,,0.00,WeatherDisplay:10.37,2013-02-01 05:53:00,
2013-02-01 00:54:00,35.6,18.8,28.79,WNW,292,3.5,3.5,50,0.00,CLR,,0.00,WeatherDisplay:10.37,2013-02-01 05:54:00,
2013-02-01 00:58:00,35.6,18.8,28.79,West,261,0.0,0.0,50,0.00,CLR,,0.00,WeatherDisplay:10.37,2013-02-01 05:58:00,
2013-02-01 00:59:00,35.6,18.8,28.79,WNW,297,3.5,3.5,50,0.00,CLR,,0.00,WeatherDisplay:10.37,2013-02-01 05:59:00,
2013-02-01 01:03:00,35.6,18.8,28.79,WSW,247,4.6,4.6,50,0.00,CLR,,0.00,WeatherDisplay:10.37,2013-02-01 06:03:00,
2013-02-01 01:04:00,35.6,18.8,28.79,WNW,286,4.9,4.9,50,0.00,CLR,,0.00,WeatherDisplay:10.37,2013-02-01 06:04:00,
2013-02-01 01:08:00,35.6,18.8,28.79,WNW,291,10.4,10.4,50,0.00,CLR,,0.00,WeatherDisplay:10.37,2013-02-01 06:08:00,
2013-02-01 01:09:00,35.4,18.6,28.79,West,279,10.4,10.4,50,0.00,CLR,,0.00,WeatherDisplay:10.37,2013-02-01 06:09:00,
2013-02-01 01:10:00,35.4,18.6,28.79,WNW,300,8.1,8.1,50,0.00,CLR,,0.00,WeatherDisplay:10.37,2013-02-01 06:10:00,
2013-02-01 01:13:00,35.4,18.6,28.79,NW,309,9.2,9.2,50,0.00,CLR,,0.00,WeatherDisplay:10.37,2013-02-01 06:13:00,
2013-02-01 01:14:00,35.4,18.6,28.79,WSW,258,5.8,5.8,50,0.00,CLR,,0.00,WeatherDisplay:10.37,2013-02-01 06:14:00,
2013-02-01 01:15:00,35.4,18.6,28.79,West,281,6.9,6.9,50,0.00,CLR,,0.00,WeatherDisplay:10.37,2013-02-01 06:15:00,
2013-02-01 01:18:00,35.4,18.6,28.79,West,263,6.9,6.9,50,0.00,CLR,,0.00,WeatherDisplay:10.37,2013-02-01 06:18:00,
2013-02-01 01:19:00,35.4,18.6,28.79,WSW,246,6.9,6.9,50,0.00,CLR,,0.00,WeatherDisplay:10.37,2013-02-01 06:19:00,
2013-02-01 01:20:00,35.4,18.6,28.79,West,276,8.1,8.1,50,0.00,CLR,,0.00,WeatherDisplay:10.37,2013-02-01 06:20:00,
2013-02-01 01:23:00,35.2,18.4,28.79,WNW,286,6.9,6.9,50,0.00,CLR,,0.00,WeatherDisplay:10.37,2013-02-01 06:23:00,
2013-02-01 01:24:00,35.2,18.4,28.79,WSW,255,6.9,6.9,50,0.00,CLR,,0.00,WeatherDisplay:10.37,2013-02-01 06:24:00,
2013-02-01 01:25:00,35.2,18.4,28.79,WSW,250,5.8,5.8,50,0.00,CLR,,0.00,WeatherDisplay:10.37,2013-02-01 06:25:00,
2013-02-01 01:28:00,35.2,18.4,28.79,SW,236,4.9,4.9,50,0.00,CLR,,0.00,WeatherDisplay:10.37,2013-02-01 06:28:00,
2013-02-01 01:29:00,35.2,18.4,28.79,SSW,210,6.7,6.7,50,0.00,CLR,,0.00,WeatherDisplay:10.37,2013-02-01 06:29:00,
2013-02-01 01:30:00,35.2,18.4,28.79,West,276,5.8,5.8,50,0.00,CLR,,0.00,WeatherDisplay:10.37,2013-02-01 06:30:00,
2013-02-01 01:33:00,35.1,18.3,28.79,WSW,250,8.1,8.1,50,0.00,CLR,,0.00,WeatherDisplay:10.37,2013-02-01 06:33:00,
2013-02-01 01:34:00,35.1,18.3,28.79,West,273,8.1,8.1,50,0.00,CLR,,0.00,WeatherDisplay:10.37,2013-02-01 06:34:00,
2013-02-01 01:35:00,35.1,18.3,28.79,WNW,300,9.2,9.2,50,0.00,CLR,,0.00,WeatherDisplay:10.37,2013-02-01 06:35:00,
2013-02-01 01:38:00,35.1,18.3,28.79,SSW,200,8.1,8.1,50,0.00,CLR,,0.00,WeatherDisplay:10.37,2013-02-01 06:38:00,
2013-02-01 01:39:00,35.1,18.3,28.79,WSW,249,8.1,8.1,50,0.00,CLR,,0.00,WeatherDisplay:10.37,2013-02-01 06:39:00,
2013-02-01 01:40:00,35.1,18.3,28.79,West,277,6.9,6.9,50,0.00,CLR,,0.00,WeatherDisplay:10.37,2013-02-01 06:40:00,
2013-02-01 01:44:00,35.1,18.3,28.79,WNW,300,5.8,5.8,50,0.00,CLR,,0.00,WeatherDisplay:10.37,2013-02-01 06:44:00,
2013-02-01 01:45:00,35.1,18.3,28.79,NW,307,10.4,10.4,50,0.00,CLR,,0.00,WeatherDisplay:10.37,2013-02-01 06:45:00,
2013-02-01 01:49:00,34.9,18.1,28.79,West,264,4.6,0.0,50,0.00,CLR,,0.00,WeatherDisplay:10.37,2013-02-01 06:49:00,
2013-02-01 01:50:00,34.9,18.1,28.79,NW,318,3.5,3.6,50,0.00,CLR,,0.00,WeatherDisplay:10.37,2013-02-01 06:50:00,
2013-02-01 01:54:00,34.9,18.1,28.79,WSW,255,3.5,3.5,50,0.00,CLR,,0.00,WeatherDisplay:10.37,2013-02-01 06:54:00,
2013-02-01 01:55:00,34.9,18.1,28.79,WNW,286,4.6,0.0,50,0.00,CLR,,0.00,WeatherDisplay:10.37,2013-02-01 06:55:00,
2013-02-01 01:59:00,34.9,18.1,28.79,West,275,6.9,6.9,50,0.00,CLR,,0.00,WeatherDisplay:10.37,2013-02-01 06:59:00,
2013-02-01 02:00:00,34.9,18.1,28.79,WNW,293,8.3,8.3,50,0.00,CLR,,0.00,WeatherDisplay:10.37,2013-02-01 07:00:00,
2013-02-01 02:04:00,34.9,18.1,28.79,SW,222,6.9,6.9,50,0.00,CLR,,0.00,WeatherDisplay:10.37,2013-02-01 07:04:00,
2013-02-01 02:05:00,34.9,18.1,28.79,West,277,6.9,6.9,50,0.00,CLR,,0.00,WeatherDisplay:10.37,2013-02-01 07:05:00,
2013-02-01 02:09:00,34.9,18.1,28.79,West,268,9.2,9.2,50,0.00,CLR,,0.00,WeatherDisplay:10.37,2013-02-01 07:09:00,
2013-02-01 02:10:00,34.9,18.1,28.79,West,281,9.2,9.2,50,0.00,CLR,,0.00,WeatherDisplay:10.37,2013-02-01 07:10:00,
2013-02-01 02:14:00,34.9,18.1,28.82,WNW,287,6.7,6.7,50,0.00,CLR,,0.00,WeatherDisplay:10.37,2013-02-01 07:14:00,
2013-02-01 02:15:00,34.7,17.9,28.82,West,276,8.7,8.7,50,0.00,CLR,,0.00,WeatherDisplay:10.37,2013-02-01 07:15:00,
2013-02-01 02:19:00,34.7,17.9,28.82,NW,307,8.1,8.1,50,0.00,CLR,,0.00,WeatherDisplay:10.37,2013-02-01 07:19:00,
2013-02-01 02:20:00,34.7,17.9,28.82,SW,232,6.9,6.9,50,0.00,CLR,,0.00,WeatherDisplay:10.37,2013-02-01 07:20:00,
2013-02-01 02:24:00,34.7,17.9,28.82,West,265,5.8,5.8,50,0.00,CLR,,0.00,WeatherDisplay:10.37,2013-02-01 07:24:00,
2013-02-01 02:25:00,34.7,17.9,28.82,WNW,299,5.8,5.8,50,0.00,CLR,,0.00,WeatherDisplay:10.37,2013-02-01 07:25:00,
2013-02-01 02:30:00,34.5,17.8,28.82,WSW,244,9.2,9.2,50,0.00,CLR,,0.00,WeatherDisplay:10.37,2013-02-01 07:30:00,
2013-02-01 02:35:00,34.5,17.8,28.82,West,266,5.8,5.8,50,0.00,CLR,,0.00,WeatherDisplay:10.37,2013-02-01 07:35:00,
2013-02-01 02:36:00,34.5,17.8,28.82,WSW,253,6.9,6.9,50,0.00,CLR,,0.00,WeatherDisplay:10.37,2013-02-01 07:36:00,
2013-02-01 02:40:00,34.5,17.8,28.82,WSW,244,9.2,9.2,50,0.00,CLR,,0.00,WeatherDisplay:10.37,2013-02-01 07:40:00,
2013-02-01 02:41:00,34.5,17.8,28.82,West,264,6.9,6.9,50,0.00,CLR,,0.00,WeatherDisplay:10.37,2013-02-01 07:41:00,
2013-02-01 02:45:00,34.5,17.8,28.82,WNW,290,5.8,5.8,50,0.00,CLR,,0.00,WeatherDisplay:10.37,2013-02-01 07:45:00,
2013-02-01 02:46:00,34.5,17.8,28.82,WNW,289,11.5,11.5,50,0.00,CLR,,0.00,WeatherDisplay:10.37,2013-02-01 07:46:00,
2013-02-01 02:50:00,34.3,17.6,28.82,NW,314,5.8,5.8,50,0.00,CLR,,0.00,WeatherDisplay:10.37,2013-02-01 07:50:00,
2013-02-01 02:51:00,34.3,17.6,28.82,SW,235,5.8,5.8,50,0.00,CLR,,0.00,WeatherDisplay:10.37,2013-02-01 07:51:00,
2013-02-01 02:55:00,34.3,17.6,28.82,SW,225,3.6,3.6,50,0.00,CLR,,0.00,WeatherDisplay:10.37,2013-02-01 07:55:00,
2013-02-01 02:56:00,34.3,17.6,28.82,WNW,293,9.2,9.2,50,0.00,CLR,,0.00,WeatherDisplay:10.37,2013-02-01 07:56:00,
2013-02-01 02:57:00,34.3,17.6,28.82,West,281,9.2,9.2,50,0.00,CLR,,0.00,WeatherDisplay:10.37,2013-02-01 07:57:00,
2013-02-01 03:00:00,34.3,17.6,28.82,WNW,293,8.7,8.7,50,0.00,CLR,,0.00,WeatherDisplay:10.37,2013-02-01 08:00:00,
2013-02-01 03:01:00,34.3,17.6,28.82,WNW,287,11.5,11.5,50,0.00,CLR,,0.00,WeatherDisplay:10.37,2013-02-01 08:01:00,
2013-02-01 03:02:00,34.3,17.6,28.82,WNW,293,11.5,11.5,50,0.00,CLR,,0.00,WeatherDisplay:10.37,2013-02-01 08:02:00,
2013-02-01 03:05:00,34.3,17.6,28.82,WNW,297,9.2,9.2,50,0.00,CLR,,0.00,WeatherDisplay:10.37,2013-02-01 08:05:00,
2013-02-01 03:06:00,34.3,17.6,28.82,WNW,295,3.6,3.6,50,0.00,CLR,,0.00,WeatherDisplay:10.37,2013-02-01 08:06:00,
2013-02-01 03:07:00,34.3,17.6,28.82,South,188,5.4,5.4,50,0.00,CLR,,0.00,WeatherDisplay:10.37,2013-02-01 08:07:00,
2013-02-01 03:10:00,34.2,17.4,28.82,WNW,294,9.2,9.2,50,0.00,CLR,,0.00,WeatherDisplay:10.37,2013-02-01 08:10:00,
2013-02-01 03:11:00,34.2,17.4,28.82,WSW,242,9.2,9.2,50,0.00,CLR,,0.00,WeatherDisplay:10.37,2013-02-01 08:11:00,
2013-02-01 03:12:00,34.2,17.4,28.82,West,280,4.6,4.6,50,0.00,CLR,,0.00,WeatherDisplay:10.37,2013-02-01 08:12:00,
2013-02-01 03:15:00,34.2,17.4,28.82,NW,313,13.8,13.8,50,0.00,CLR,,0.00,WeatherDisplay:10.37,2013-02-01 08:15:00,
2013-02-01 03:16:00,34.2,17.4,28.82,WNW,302,13.8,13.8,50,0.00,CLR,,0.00,WeatherDisplay:10.37,2013-02-01 08:16:00,
2013-02-01 03:17:00,34.2,17.4,28.82,West,279,13.8,13.8,50,0.00,CLR,,0.00,WeatherDisplay:10.37,2013-02-01 08:17:00,
2013-02-01 03:21:00,34.0,17.3,28.82,West,262,11.5,11.5,50,0.00,CLR,,0.00,WeatherDisplay:10.37,2013-02-01 08:21:00,
2013-02-01 03:22:00,34.0,17.3,28.82,West,272,9.2,9.2,50,0.00,CLR,,0.00,WeatherDisplay:10.37,2013-02-01 08:22:00,
2013-02-01 03:26:00,34.0,17.3,28.82,WNW,285,11.5,11.5,50,0.00,CLR,,0.00,WeatherDisplay:10.37,2013-02-01 08:26:00,
2013-02-01 03:27:00,34.0,17.3,28.85,WSW,248,6.9,6.9,50,0.00,CLR,,0.00,WeatherDisplay:10.37,2013-02-01 08:27:00,
2013-02-01 03:31:00,34.0,17.3,28.85,West,281,8.1,8.1,50,0.00,CLR,,0.00,WeatherDisplay:10.37,2013-02-01 08:31:00,
2013-02-01 03:32:00,33.8,17.1,28.85,West,269,11.5,11.5,50,0.00,CLR,,0.00,WeatherDisplay:10.37,2013-02-01 08:32:00,
2013-02-01 03:36:00,33.8,17.1,28.85,West,279,8.1,8.1,50,0.00,CLR,,0.00,WeatherDisplay:10.37,2013-02-01 08:36:00,
2013-02-01 03:37:00,33.8,16.6,28.85,West,279,5.8,5.8,49,0.00,CLR,,0.00,WeatherDisplay:10.37,2013-02-01 08:37:00,
2013-02-01 03:41:00,33.8,16.6,28.85,WNW,298,5.8,5.8,49,0.00,CLR,,0.00,WeatherDisplay:10.37,2013-02-01 08:41:00,
2013-02-01 03:42:00,33.8,16.6,28.85,SSW,200,5.8,5.8,49,0.00,CLR,,0.00,WeatherDisplay:10.37,2013-02-01 08:42:00,
2013-02-01 03:46:00,33.8,16.6,28.85,WSW,244,6.9,6.9,49,0.00,CLR,,0.00,WeatherDisplay:10.37,2013-02-01 08:46:00,
2013-02-01 03:47:00,33.6,16.5,28.85,SW,228,6.9,6.9,49,0.00,CLR,,0.00,WeatherDisplay:10.37,2013-02-01 08:47:00,
2013-02-01 03:51:00,33.6,16.5,28.85,WSW,249,5.8,5.8,49,0.00,CLR,,0.00,WeatherDisplay:10.37,2013-02-01 08:51:00,
2013-02-01 03:52:00,33.6,16.5,28.85,WSW,247,5.8,5.8,49,0.00,CLR,,0.00,WeatherDisplay:10.37,2013-02-01 08:52:00,
2013-02-01 03:57:00,33.6,16.5,28.85,SW,236,8.1,8.1,49,0.00,CLR,,0.00,WeatherDisplay:10.37,2013-02-01 08:57:00,
2013-02-01 03:58:00,33.6,16.5,28.85,WNW,303,6.7,6.7,49,0.00,CLR,,0.00,WeatherDisplay:10.37,2013-02-01 08:58:00,
2013-02-01 04:02:00,33.6,16.5,28.85,WSW,255,4.6,4.6,49,0.00,CLR,,0.00,WeatherDisplay:10.37,2013-02-01 09:02:00,
2013-02-01 04:03:00,33.6,16.5,28.85,WNW,285,4.6,4.6,49,0.00,CLR,,0.00,WeatherDisplay:10.37,2013-02-01 09:03:00,
2013-02-01 04:07:00,33.6,16.5,28.85,WNW,303,6.9,6.9,49,0.00,CLR,,0.00,WeatherDisplay:10.37,2013-02-01 09:07:00,
2013-02-01 04:08:00,33.6,16.5,28.85,West,266,6.9,6.9,49,0.00,CLR,,0.00,WeatherDisplay:10.37,2013-02-01 09:08:00,
2013-02-01 04:12:00,33.6,16.5,28.85,West,264,10.4,10.4,49,0.00,CLR,,0.00,WeatherDisplay:10.37,2013-02-01 09:12:00,
2013-02-01 04:13:00,33.6,16.5,28.85,WNW,294,10.4,10.4,49,0.00,CLR,,0.00,WeatherDisplay:10.37,2013-02-01 09:13:00,
2013-02-01 04:17:00,33.4,16.3,28.85,West,273,11.5,11.5,49,0.00,CLR,,0.00,WeatherDisplay:10.37,2013-02-01 09:17:00,
2013-02-01 04:18:00,33.4,16.3,28.85,West,268,11.5,11.5,49,0.00,CLR,,0.00,WeatherDisplay:10.37,2013-02-01 09:18:00,
2013-02-01 04:22:00,33.4,16.3,28.85,WNW,282,9.2,9.2,49,0.00,CLR,,0.00,WeatherDisplay:10.37,2013-02-01 09:22:00,
2013-02-01 04:23:00,33.4,16.3,28.85,NW,310,9.2,9.2,49,0.00,CLR,,0.00,WeatherDisplay:10.37,2013-02-01 09:23:00,
2013-02-01 04:28:00,33.4,16.3,28.88,West,271,8.1,8.1,49,0.00,CLR,,0.00,WeatherDisplay:10.37,2013-02-01 09:28:00,
2013-02-01 04:33:00,33.4,16.3,28.88,WSW,254,9.2,9.2,49,0.00,CLR,,0.00,WeatherDisplay:10.37,2013-02-01 09:33:00,
2013-02-01 04:38:00,33.3,16.1,28.88,WNW,291,5.8,5.8,49,0.00,CLR,,0.00,WeatherDisplay:10.37,2013-02-01 09:38:00,
2013-02-01 04:39:00,33.3,16.1,28.88,West,270,5.8,5.8,49,0.00,CLR,,0.00,WeatherDisplay:10.37,2013-02-01 09:39:00,
2013-02-01 04:43:00,33.3,16.1,28.88,SW,231,5.8,5.8,49,0.00,CLR,,0.00,WeatherDisplay:10.37,2013-02-01 09:43:00,
2013-02-01 04:44:00,33.3,16.1,28.88,West,277,5.8,5.8,49,0.00,CLR,,0.00,WeatherDisplay:10.37,2013-02-01 09:44:00,
2013-02-01 04:48:00,33.1,16.0,28.88,West,278,11.5,11.5,49,0.00,CLR,,0.00,WeatherDisplay:10.37,2013-02-01 09:48:00,
2013-02-01 04:49:00,33.1,16.0,28.88,SSW,206,11.5,11.5,49,0.00,CLR,,0.00,WeatherDisplay:10.37,2013-02-01 09:49:00,
2013-02-01 04:53:00,33.1,16.0,28.88,West,267,9.2,9.2,49,0.00,CLR,,0.00,WeatherDisplay:10.37,2013-02-01 09:53:00,
2013-02-01 04:54:00,33.1,16.0,28.88,WNW,286,9.2,9.2,49,0.00,CLR,,0.00,WeatherDisplay:10.37,2013-02-01 09:54:00,
2013-02-01 04:55:00,33.1,16.0,28.88,West,269,10.4,10.4,49,0.00,CLR,,0.00,WeatherDisplay:10.37,2013-02-01 09:55:00,
2013-02-01 04:59:00,33.1,16.0,28.88,West,260,8.3,8.3,49,0.00,CLR,,0.00,WeatherDisplay:10.37,2013-02-01 09:59:00,
2013-02-01 05:00:00,33.1,16.0,28.88,SW,229,9.2,9.2,49,0.00,CLR,,0.00,WeatherDisplay:10.37,2013-02-01 10:00:00,
2013-02-01 05:04:00,33.1,16.0,28.88,NW,305,11.5,11.5,49,0.00,CLR,,0.00,WeatherDisplay:10.37,2013-02-01 10:04:00,
2013-02-01 05:05:00,33.1,16.0,28.88,SSW,209,11.5,11.5,49,0.00,CLR,,0.00,WeatherDisplay:10.37,2013-02-01 10:05:00,
2013-02-01 05:09:00,33.1,16.0,28.88,NW,310,9.2,9.2,49,0.00,CLR,,0.00,WeatherDisplay:10.37,2013-02-01 10:09:00,
2013-02-01 05:10:00,33.1,16.0,28.88,WNW,297,11.5,11.5,49,0.00,CLR,,0.00,WeatherDisplay:10.37,2013-02-01 10:10:00,
2013-02-01 05:14:00,33.1,16.0,28.88,SW,232,3.5,3.5,49,0.00,CLR,,0.00,WeatherDisplay:10.37,2013-02-01 10:14:00,
2013-02-01 05:15:00,33.1,16.0,28.88,West,269,5.8,5.8,49,0.00,CLR,,0.00,WeatherDisplay:10.37,2013-02-01 10:15:00,
2013-02-01 05:19:00,32.9,15.8,28.88,WNW,296,12.7,12.7,49,0.00,CLR,,0.00,WeatherDisplay:10.37,2013-02-01 10:19:00,
2013-02-01 05:20:00,32.9,15.8,28.88,WNW,292,9.2,9.2,49,0.00,CLR,,0.00,WeatherDisplay:10.37,2013-02-01 10:20:00,
2013-02-01 05:24:00,32.9,15.8,28.88,SW,231,12.7,12.7,49,0.00,CLR,,0.00,WeatherDisplay:10.37,2013-02-01 10:24:00,
2013-02-01 05:25:00,32.7,15.6,28.88,West,280,11.5,11.5,49,0.00,CLR,,0.00,WeatherDisplay:10.37,2013-02-01 10:25:00,
2013-02-01 05:29:00,32.7,15.6,28.91,West,277,7.0,12.0,49,0.00,CLR,CLR,0.00,WeatherDisplay:10.37,2013-02-01 10:29:00,
2013-02-01 05:30:00,32.7,15.6,28.91,West,269,7.4,7.4,49,0.00,CLR,,0.00,WeatherDisplay:10.37,2013-02-01 10:30:00,
2013-02-01 05:34:00,32.7,15.6,28.91,West,276,7.0,10.0,49,0.00,CLR,CLR,0.00,WeatherDisplay:10.37,2013-02-01 10:34:00,
2013-02-01 05:35:00,32.7,15.6,28.91,West,274,8.1,8.1,49,0.00,CLR,,0.00,WeatherDisplay:10.37,2013-02-01 10:35:00,
2013-02-01 05:39:00,32.7,15.6,28.91,SW,234,9.2,9.2,49,0.00,CLR,,0.00,WeatherDisplay:10.37,2013-02-01 10:39:00,
2013-02-01 05:40:00,32.7,15.6,28.91,WSW,251,9.2,9.2,49,0.00,CLR,,0.00,WeatherDisplay:10.37,2013-02-01 10:40:00,
2013-02-01 05:44:00,32.5,15.5,28.91,WNW,292,12.1,12.1,49,0.00,CLR,,0.00,WeatherDisplay:10.37,2013-02-01 10:44:00,
2013-02-01 05:45:00,32.5,15.5,28.91,WNW,297,6.9,6.9,49,0.00,CLR,,0.00,WeatherDisplay:10.37,2013-02-01 10:45:00,
2013-02-01 05:49:00,32.5,15.5,28.91,WNW,287,10.4,10.4,49,0.00,CLR,,0.00,WeatherDisplay:10.37,2013-02-01 10:49:00,
2013-02-01 05:50:00,32.5,15.5,28.91,SW,226,10.4,10.4,49,0.00,CLR,,0.00,WeatherDisplay:10.37,2013-02-01 10:50:00,
2013-02-01 05:55:00,32.5,15.5,28.91,WSW,244,11.5,11.5,49,0.00,CLR,,0.00,WeatherDisplay:10.37,2013-02-01 10:55:00,
2013-02-01 05:56:00,32.5,15.5,28.91,West,261,6.9,6.9,49,0.00,CLR,,0.00,WeatherDisplay:10.37,2013-02-01 10:56:00,
2013-02-01 06:00:00,32.5,15.5,28.91,West,281,9.2,9.2,49,0.00,CLR,,0.00,WeatherDisplay:10.37,2013-02-01 11:00:00,
2013-02-01 06:01:00,32.5,15.5,28.91,WSW,256,9.2,9.2,49,0.00,CLR,,0.00,WeatherDisplay:10.37,2013-02-01 11:01:00,
2013-02-01 06:05:00,32.5,15.5,28.91,West,279,9.2,9.2,49,0.00,CLR,,0.00,WeatherDisplay:10.37,2013-02-01 11:05:00,
2013-02-01 06:06:00,32.7,15.6,28.91,NW,317,6.9,6.9,49,0.00,CLR,,0.00,WeatherDisplay:10.37,2013-02-01 11:06:00,
2013-02-01 06:07:00,32.7,15.6,28.91,West,271,11.5,11.5,49,0.00,CLR,,0.00,WeatherDisplay:10.37,2013-02-01 11:07:00,
2013-02-01 06:10:00,32.7,15.6,28.91,West,272,8.1,8.1,49,0.00,CLR,,0.00,WeatherDisplay:10.37,2013-02-01 11:10:00,
2013-02-01 06:11:00,32.7,15.6,28.91,SW,235,6.9,6.9,49,0.00,CLR,,0.00,WeatherDisplay:10.37,2013-02-01 11:11:00,
2013-02-01 06:12:00,32.7,15.6,28.94,WSW,252,6.9,6.9,49,0.00,CLR,,0.00,WeatherDisplay:10.37,2013-02-01 11:12:00,
2013-02-01 06:15:00,32.7,15.6,28.94,WSW,254,10.4,10.4,49,0.00,CLR,,0.00,WeatherDisplay:10.37,2013-02-01 11:15:00,
2013-02-01 06:16:00,32.7,15.6,28.94,WNW,301,10.9,10.9,49,0.00,CLR,,0.00,WeatherDisplay:10.37,2013-02-01 11:16:00,
2013-02-01 06:17:00,32.7,15.6,28.94,WNW,290,10.4,10.4,49,0.00,CLR,,0.00,WeatherDisplay:10.37,2013-02-01 11:17:00,
2013-02-01 06:20:00,32.5,15.5,28.94,West,275,10.4,10.4,49,0.00,CLR,,0.00,WeatherDisplay:10.37,2013-02-01 11:20:00,
2013-02-01 06:21:00,32.5,15.5,28.94,WNW,285,10.4,10.4,49,0.00,CLR,,0.00,WeatherDisplay:10.37,2013-02-01 11:21:00,
2013-02-01 06:22:00,32.5,15.5,28.94,West,273,10.4,10.4,49,0.00,CLR,,0.00,WeatherDisplay:10.37,2013-02-01 11:22:00,
2013-02-01 06:25:00,32.5,15.5,28.94,WNW,285,8.1,8.1,49,0.00,CLR,,0.00,WeatherDisplay:10.37,2013-02-01 11:25:00,
2013-02-01 06:26:00,32.5,15.5,28.94,WNW,296,8.1,8.1,49,0.00,CLR,,0.00,WeatherDisplay:10.37,2013-02-01 11:26:00,
2013-02-01 06:27:00,32.5,15.5,28.94,WNW,284,11.6,11.6,49,0.00,CLR,,0.00,WeatherDisplay:10.37,2013-02-01 11:27:00,
2013-02-01 06:30:00,32.4,15.3,28.94,WSW,243,8.1,8.1,49,0.00,CLR,,0.00,WeatherDisplay:10.37,2013-02-01 11:30:00,
2013-02-01 06:31:00,32.4,15.3,28.94,WNW,283,8.1,8.1,49,0.00,CLR,,0.00,WeatherDisplay:10.37,2013-02-01 11:31:00,
2013-02-01 06:32:00,32.4,15.3,28.94,SW,231,11.6,11.6,49,0.00,CLR,,0.00,WeatherDisplay:10.37,2013-02-01 11:32:00,
2013-02-01 06:35:00,32.2,14.7,28.94,West,268,9.2,9.2,48,0.00,CLR,,0.00,WeatherDisplay:10.37,2013-02-01 11:35:00,
2013-02-01 06:36:00,32.2,14.7,28.94,West,263,9.2,9.2,48,0.00,CLR,,0.00,WeatherDisplay:10.37,2013-02-01 11:36:00,
2013-02-01 06:37:00,32.2,14.7,28.94,NW,305,11.5,11.5,48,0.00,CLR,,0.00,WeatherDisplay:10.37,2013-02-01 11:37:00,
2013-02-01 06:40:00,32.2,14.7,28.94,SW,218,10.4,10.4,48,0.00,CLR,,0.00,WeatherDisplay:10.37,2013-02-01 11:40:00,
2013-02-01 06:41:00,32.2,14.7,28.94,West,263,10.4,10.4,48,0.00,CLR,,0.00,WeatherDisplay:10.37,2013-02-01 11:41:00,
2013-02-01 06:42:00,32.2,14.7,28.94,West,270,9.2,9.2,48,0.00,CLR,,0.00,WeatherDisplay:10.37,2013-02-01 11:42:00,
2013-02-01 06:43:00,32.2,14.7,28.94,West,280,9.2,9.2,48,0.00,CLR,,0.00,WeatherDisplay:10.37,2013-02-01 11:43:00,
2013-02-01 06:45:00,32.0,14.5,28.94,WNW,285,11.5,11.5,48,0.00,CLR,,0.00,WeatherDisplay:10.37,2013-02-01 11:45:00,
2013-02-01 06:46:00,32.0,14.5,28.94,West,270,11.5,11.5,48,0.00,CLR,,0.00,WeatherDisplay:10.37,2013-02-01 11:46:00,
2013-02-01 06:47:00,32.0,14.5,28.94,SSW,213,11.5,11.5,48,0.00,CLR,,0.00,WeatherDisplay:10.37,2013-02-01 11:47:00,
2013-02-01 06:48:00,32.0,14.5,28.94,WSW,257,11.5,11.5,48,0.00,CLR,,0.00,WeatherDisplay:10.37,2013-02-01 11:48:00,
2013-02-01 06:50:00,32.0,14.5,28.94,West,267,10.9,10.9,48,0.00,CLR,,0.00,WeatherDisplay:10.37,2013-02-01 11:50:00,
2013-02-01 06:51:00,32.0,14.5,28.94,West,278,9.2,9.2,48,0.00,CLR,,0.00,WeatherDisplay:10.37,2013-02-01 11:51:00,
2013-02-01 06:52:00,31.8,14.3,28.94,WNW,292,11.5,11.5,48,0.00,CLR,,0.00,WeatherDisplay:10.37,2013-02-01 11:52:00,
2013-02-01 06:53:00,31.8,14.3,28.94,WNW,286,10.4,10.4,48,0.00,CLR,,0.00,WeatherDisplay:10.37,2013-02-01 11:53:00,
2013-02-01 06:56:00,31.8,14.3,28.94,WNW,287,15.0,15.0,48,0.00,CLR,,0.00,WeatherDisplay:10.37,2013-02-01 11:56:00,
2013-02-01 06:57:00,31.6,14.2,28.97,NW,308,11.5,11.5,48,0.00,CLR,,0.00,WeatherDisplay:10.37,2013-02-01 11:57:00,
2013-02-01 06:58:00,31.6,14.2,28.97,West,272,11.5,11.5,48,0.00,CLR,,0.00,WeatherDisplay:10.37,2013-02-01 11:58:00,
2013-02-01 07:01:00,31.6,14.2,28.97,West,270,11.5,11.5,48,0.00,CLR,,0.00,WeatherDisplay:10.37,2013-02-01 12:01:00,
2013-02-01 07:02:00,31.6,14.2,28.97,WNW,283,9.2,9.2,48,0.00,CLR,,0.00,WeatherDisplay:10.37,2013-02-01 12:02:00,
2013-02-01 07:03:00,31.6,14.2,28.97,WNW,300,8.1,8.1,48,0.00,CLR,,0.00,WeatherDisplay:10.37,2013-02-01 12:03:00,
2013-02-01 07:06:00,31.5,14.0,28.97,WNW,301,6.9,6.9,48,0.00,CLR,,0.00,WeatherDisplay:10.37,2013-02-01 12:06:00,
2013-02-01 07:07:00,31.5,14.0,28.97,WNW,288,6.9,6.9,48,0.00,CLR,,0.00,WeatherDisplay:10.37,2013-02-01 12:07:00,
2013-02-01 07:08:00,31.5,14.0,28.97,West,276,8.7,8.7,48,0.00,CLR,,0.00,WeatherDisplay:10.37,2013-02-01 12:08:00,
2013-02-01 07:11:00,31.5,14.0,28.97,WNW,287,8.1,8.1,48,0.00,CLR,,0.00,WeatherDisplay:10.37,2013-02-01 12:11:00,
2013-02-01 07:12:00,31.5,14.0,28.97,West,273,9.2,9.2,48,0.00,CLR,,0.00,WeatherDisplay:10.37,2013-02-01 12:12:00,
2013-02-01 07:13:00,31.5,14.0,28.97,West,279,10.4,10.4,48,0.00,CLR,,0.00,WeatherDisplay:10.37,2013-02-01 12:13:00,
2013-02-01 07:16:00,31.3,13.8,28.97,SW,217,6.9,6.9,48,0.00,CLR,,0.00,WeatherDisplay:10.37,2013-02-01 12:16:00,
2013-02-01 07:17:00,31.3,13.8,28.97,West,271,5.8,5.8,48,0.00,CLR,,0.00,WeatherDisplay:10.37,2013-02-01 12:17:00,
2013-02-01 07:18:00,31.3,13.8,28.97,West,271,5.8,5.8,48,0.00,CLR,,0.00,WeatherDisplay:10.37,2013-02-01 12:18:00,
2013-02-01 07:21:00,31.3,13.8,28.97,WSW,258,6.9,6.9,48,0.00,CLR,,0.00,WeatherDisplay:10.37,2013-02-01 12:21:00,
2013-02-01 07:22:00,31.3,13.8,28.97,WNW,289,6.9,6.9,48,0.00,CLR,,0.00,WeatherDisplay:10.37,2013-02-01 12:22:00,
2013-02-01 07:23:00,31.3,13.8,28.97,WNW,301,6.9,6.9,48,0.00,CLR,,0.00,WeatherDisplay:10.37,2013-02-01 12:23:00,
2013-02-01 07:24:00,31.3,13.8,28.97,West,267,8.1,8.1,48,0.00,CLR,,0.00,WeatherDisplay:10.37,2013-02-01 12:24:00,
2013-02-01 07:27:00,31.3,13.4,29.00,SW,216,5.8,5.8,47,0.00,CLR,,0.00,WeatherDisplay:10.37,2013-02-01 12:27:00,
2013-02-01 07:28:00,31.3,13.4,29.00,SW,232,6.9,6.9,47,0.00,CLR,,0.00,WeatherDisplay:10.37,2013-02-01 12:28:00,
2013-02-01 07:29:00,31.3,13.4,29.00,WSW,251,5.8,5.8,47,0.00,CLR,,0.00,WeatherDisplay:10.37,2013-02-01 12:29:00,
2013-02-01 07:32:00,31.3,13.4,29.00,WNW,294,9.2,9.2,47,0.00,CLR,,0.00,WeatherDisplay:10.37,2013-02-01 12:32:00,
2013-02-01 07:33:00,31.3,13.4,29.00,West,264,9.2,9.2,47,0.00,CLR,,0.00,WeatherDisplay:10.37,2013-02-01 12:33:00,
2013-02-01 07:34:00,31.1,13.2,29.00,WNW,282,9.2,9.2,47,0.00,CLR,,0.00,WeatherDisplay:10.37,2013-02-01 12:34:00,
2013-02-01 07:37:00,31.1,13.2,29.00,WNW,288,10.4,10.4,47,0.00,CLR,,0.00,WeatherDisplay:10.37,2013-02-01 12:37:00,
2013-02-01 07:38:00,31.1,13.2,29.00,SW,217,13.8,13.8,47,0.00,CLR,,0.00,WeatherDisplay:10.37,2013-02-01 12:38:00,
2013-02-01 07:40:00,31.1,13.7,29.00,WNW,282,6.9,6.9,48,0.00,CLR,,0.00,WeatherDisplay:10.37,2013-02-01 12:40:00,
2013-02-01 07:42:00,31.1,13.7,29.00,NW,304,9.2,9.2,48,0.00,CLR,,0.00,WeatherDisplay:10.37,2013-02-01 12:42:00,
2013-02-01 07:43:00,31.1,13.7,29.00,WNW,283,11.5,11.5,48,0.00,CLR,,0.00,WeatherDisplay:10.37,2013-02-01 12:43:00,
2013-02-01 07:45:00,30.9,13.5,29.00,West,261,6.9,6.9,48,0.00,CLR,,0.00,WeatherDisplay:10.37,2013-02-01 12:45:00,
2013-02-01 07:47:00,30.9,13.5,29.00,West,264,10.9,10.9,48,0.00,CLR,,0.00,WeatherDisplay:10.37,2013-02-01 12:47:00,
2013-02-01 07:48:00,30.9,13.5,29.00,WNW,294,12.7,12.7,48,0.00,CLR,,0.00,WeatherDisplay:10.37,2013-02-01 12:48:00,
2013-02-01 07:50:00,30.9,13.5,29.00,WNW,299,10.4,10.4,48,0.00,CLR,,0.00,WeatherDisplay:10.37,2013-02-01 12:50:00,
2013-02-01 07:52:00,30.9,13.5,29.00,WNW,293,8.1,8.1,48,0.00,CLR,,0.00,WeatherDisplay:10.37,2013-02-01 12:52:00,
2013-02-01 07:53:00,30.9,13.5,29.00,WNW,299,9.2,9.2,48,0.00,CLR,,0.00,WeatherDisplay:10.37,2013-02-01 12:53:00,
2013-02-01 07:56:00,30.9,13.5,29.00,WNW,296,11.5,11.5,48,0.00,CLR,,0.00,WeatherDisplay:10.37,2013-02-01 12:56:00,
2013-02-01 07:57:00,30.9,13.5,29.00,WNW,299,6.9,6.9,48,0.00,CLR,,0.00,WeatherDisplay:10.37,2013-02-01 12:57:00,
2013-02-01 07:58:00,30.9,13.5,29.00,WSW,250,6.9,6.9,48,0.00,CLR,,0.00,WeatherDisplay:10.37,2013-02-01 12:58:00,
2013-02-01 08:01:00,30.9,13.5,29.00,SW,227,11.5,11.5,48,0.00,CLR,,0.00,WeatherDisplay:10.37,2013-02-01 13:01:00,
2013-02-01 08:02:00,30.9,13.5,29.00,WSW,247,10.1,10.1,48,0.00,CLR,,0.00,WeatherDisplay:10.37,2013-02-01 13:02:00,
2013-02-01 08:03:00,30.7,13.3,29.00,SW,217,10.4,10.4,48,0.00,CLR,,0.00,WeatherDisplay:10.37,2013-02-01 13:03:00,
2013-02-01 08:04:00,30.7,13.3,29.00,West,277,10.4,10.4,48,0.00,CLR,,0.00,WeatherDisplay:10.37,2013-02-01 13:04:00,
2013-02-01 08:06:00,30.7,13.3,29.00,West,259,11.2,11.2,48,0.00,CLR,,0.00,WeatherDisplay:10.37,2013-02-01 13:06:00,
2013-02-01 08:07:00,30.7,13.3,29.00,WNW,292,11.5,11.5,48,0.00,CLR,,0.00,WeatherDisplay:10.37,2013-02-01 13:07:00,
2013-02-01 08:09:00,30.7,12.9,29.00,WSW,251,11.5,11.5,47,0.00,CLR,,0.00,WeatherDisplay:10.37,2013-02-01 13:09:00,
2013-02-01 08:11:00,30.7,12.9,29.00,West,262,11.5,11.5,47,0.00,CLR,,0.00,WeatherDisplay:10.37,2013-02-01 13:11:00,
2013-02-01 08:12:00,30.7,12.9,29.03,SW,217,6.9,6.9,47,0.00,CLR,,0.00,WeatherDisplay:10.37,2013-02-01 13:12:00,
2013-02-01 08:14:00,30.7,12.9,29.03,WNW,290,10.4,10.4,47,0.00,CLR,,0.00,WeatherDisplay:10.37,2013-02-01 13:14:00,
2013-02-01 08:16:00,30.7,12.9,29.03,West,269,9.2,9.2,47,0.00,CLR,,0.00,WeatherDisplay:10.37,2013-02-01 13:16:00,
2013-02-01 08:17:00,30.6,12.7,29.03,SSW,203,12.5,12.5,47,0.00,CLR,,0.00,WeatherDisplay:10.37,2013-02-01 13:17:00,
2013-02-01 08:19:00,30.6,12.7,29.03,West,272,12.7,12.7,47,0.00,CLR,,0.00,WeatherDisplay:10.37,2013-02-01 13:19:00,
2013-02-01 08:20:00,30.6,12.7,29.03,WSW,257,9.2,9.2,47,0.00,CLR,,0.00,WeatherDisplay:10.37,2013-02-01 13:20:00,
2013-02-01 08:21:00,30.6,12.7,29.03,WNW,299,9.2,9.2,47,0.00,CLR,,0.00,WeatherDisplay:10.37,2013-02-01 13:21:00,
2013-02-01 08:23:00,30.6,12.7,29.03,WNW,289,9.6,9.6,47,0.00,CLR,,0.00,WeatherDisplay:10.37,2013-02-01 13:23:00,
2013-02-01 08:24:00,30.6,12.7,29.03,WNW,285,11.5,11.5,47,0.00,CLR,,0.00,WeatherDisplay:10.37,2013-02-01 13:24:00,
2013-02-01 08:25:00,30.6,12.7,29.03,SW,232,9.6,9.6,47,0.00,CLR,,0.00,WeatherDisplay:10.37,2013-02-01 13:25:00,
2013-02-01 08:26:00,30.6,12.7,29.03,WSW,258,9.2,9.2,47,0.00,CLR,,0.00,WeatherDisplay:10.37,2013-02-01 13:26:00,
2013-02-01 08:28:00,30.6,12.7,29.03,WNW,284,4.6,4.6,47,0.00,CLR,,0.00,WeatherDisplay:10.37,2013-02-01 13:28:00,
2013-02-01 08:29:00,30.6,12.7,29.03,West,260,3.0,14.0,47,0.00,CLR,CLR,0.00,WeatherDisplay:10.37,2013-02-01 13:29:00,
2013-02-01 08:31:00,30.6,12.7,29.03,SW,232,9.2,9.2,47,0.00,CLR,,0.00,WeatherDisplay:10.37,2013-02-01 13:31:00,
2013-02-01 08:33:00,30.6,12.7,29.03,West,264,9.2,9.2,47,0.00,CLR,,0.00,WeatherDisplay:10.37,2013-02-01 13:33:00,
2013-02-01 08:35:00,30.6,12.7,29.03,West,277,9.2,9.2,47,0.00,CLR,,0.00,WeatherDisplay:10.37,2013-02-01 13:35:00,
2013-02-01 08:36:00,30.6,12.7,29.03,WNW,296,9.2,9.2,47,0.00,CLR,,0.00,WeatherDisplay:10.37,2013-02-01 13:36:00,
2013-02-01 08:38:00,30.6,12.7,29.03,West,279,5.8,5.8,47,0.00,CLR,,0.00,WeatherDisplay:10.37,2013-02-01 13:38:00,
2013-02-01 08:40:00,30.7,12.9,29.03,WNW,284,6.9,6.9,47,0.00,CLR,,0.00,WeatherDisplay:10.37,2013-02-01 13:40:00,
2013-02-01 08:41:00,30.7,12.9,29.03,WNW,300,10.4,10.4,47,0.00,CLR,,0.00,WeatherDisplay:10.37,2013-02-01 13:41:00,
2013-02-01 08:43:00,30.7,12.9,29.06,SW,234,9.2,9.2,47,0.00,CLR,,0.00,WeatherDisplay:10.37,2013-02-01 13:43:00,
2013-02-01 08:45:00,30.7,12.9,29.06,SSW,203,9.2,9.2,47,0.00,CLR,,0.00,WeatherDisplay:10.37,2013-02-01 13:45:00,
2013-02-01 08:46:00,30.7,12.9,29.06,WSW,258,11.5,11.5,47,0.00,CLR,,0.00,WeatherDisplay:10.37,2013-02-01 13:46:00,
2013-02-01 08:48:00,30.7,12.9,29.06,WNW,302,8.1,8.1,47,0.00,CLR,,0.00,WeatherDisplay:10.37,2013-02-01 13:48:00,
2013-02-01 08:50:00,30.7,12.9,29.06,West,279,8.1,8.1,47,0.00,CLR,,0.00,WeatherDisplay:10.37,2013-02-01 13:50:00,
2013-02-01 08:51:00,30.7,12.9,29.06,WNW,289,11.5,11.5,47,0.00,CLR,,0.00,WeatherDisplay:10.37,2013-02-01 13:51:00,
2013-02-01 08:53:00,30.9,13.0,29.06,West,259,9.2,9.2,47,0.00,CLR,,0.00,WeatherDisplay:10.37,2013-02-01 13:53:00,
2013-02-01 08:55:00,30.9,13.0,29.06,WNW,293,10.4,10.4,47,0.00,CLR,,0.00,WeatherDisplay:10.37,2013-02-01 13:55:00,
2013-02-01 08:56:00,30.9,13.0,29.06,NW,304,9.2,9.2,47,0.00,CLR,,0.00,WeatherDisplay:10.37,2013-02-01 13:56:00,
2013-02-01 08:58:00,30.9,13.0,29.06,WSW,247,5.8,5.8,47,0.00,CLR,,0.00,WeatherDisplay:10.37,2013-02-01 13:58:00,
2013-02-01 09:00:00,30.9,13.0,29.06,NW,313,7.4,7.4,47,0.00,CLR,,0.00,WeatherDisplay:10.37,2013-02-01 14:00:00,
2013-02-01 09:01:00,30.9,13.0,29.06,WNW,292,11.6,11.6,47,0.00,CLR,,0.00,WeatherDisplay:10.37,2013-02-01 14:01:00,
2013-02-01 09:02:00,30.9,13.0,29.06,West,275,13.8,13.8,47,0.00,CLR,,0.00,WeatherDisplay:10.37,2013-02-01 14:02:00,
2013-02-01 09:03:00,30.9,13.0,29.06,WSW,240,13.8,13.8,47,0.00,CLR,,0.00,WeatherDisplay:10.37,2013-02-01 14:03:00,
2013-02-01 09:05:00,30.9,13.0,29.06,West,266,12.7,12.7,47,0.00,CLR,,0.00,WeatherDisplay:10.37,2013-02-01 14:05:00,
2013-02-01 09:06:00,30.9,13.0,29.06,West,278,12.7,12.7,47,0.00,CLR,,0.00,WeatherDisplay:10.37,2013-02-01 14:06:00,
2013-02-01 09:08:00,30.9,13.0,29.06,West,259,11.5,11.5,47,0.00,CLR,,0.00,WeatherDisplay:10.37,2013-02-01 14:08:00,
2013-02-01 09:10:00,30.9,13.0,29.06,WNW,303,5.8,5.8,47,0.00,CLR,,0.00,WeatherDisplay:10.37,2013-02-01 14:10:00,
2013-02-01 09:11:00,30.9,13.0,29.06,SSW,201,11.5,11.5,47,0.00,CLR,,0.00,WeatherDisplay:10.37,2013-02-01 14:11:00,
2013-02-01 09:13:00,31.1,13.2,29.06,WNW,282,11.5,11.5,47,0.00,CLR,,0.00,WeatherDisplay:10.37,2013-02-01 14:13:00,
2013-02-01 09:15:00,31.1,13.2,29.06,WSW,237,8.7,8.7,47,0.00,CLR,,0.00,WeatherDisplay:10.37,2013-02-01 14:15:00,
2013-02-01 09:17:00,31.1,12.7,29.06,West,280,9.2,9.2,46,0.00,CLR,,0.00,WeatherDisplay:10.37,2013-02-01 14:17:00,
2013-02-01 09:18:00,31.1,12.7,29.06,WNW,290,6.9,6.9,46,0.00,CLR,,0.00,WeatherDisplay:10.37,2013-02-01 14:18:00,
2013-02-01 09:20:00,31.1,12.7,29.06,West,276,3.5,3.6,46,0.00,CLR,,0.00,WeatherDisplay:10.37,2013-02-01 14:20:00,
2013-02-01 09:22:00,31.3,12.9,29.06,NW,304,3.5,3.6,46,0.00,CLR,,0.00,WeatherDisplay:10.37,2013-02-01 14:22:00,
2013-02-01 09:23:00,31.3,12.9,29.06,WNW,286,6.9,6.9,46,0.00,CLR,,0.00,WeatherDisplay:10.37,2013-02-01 14:23:00,
2013-02-01 09:24:00,31.3,12.9,29.06,NW,312,7.4,7.4,46,0.00,CLR,,0.00,WeatherDisplay:10.37,2013-02-01 14:24:00,
2013-02-01 09:25:00,31.3,12.9,29.06,WSW,254,9.2,9.2,46,0.00,CLR,,0.00,WeatherDisplay:10.37,2013-02-01 14:25:00,
2013-02-01 09:27:00,31.3,12.9,29.06,WNW,295,11.6,11.6,46,0.00,CLR,,0.00,WeatherDisplay:10.37,2013-02-01 14:27:00,
2013-02-01 09:28:00,31.3,12.9,29.06,WNW,285,11.5,11.5,46,0.00,CLR,,0.00,WeatherDisplay:10.37,2013-02-01 14:28:00,
2013-02-01 09:29:00,31.3,12.9,29.06,WNW,286,12.7,12.7,46,0.00,CLR,,0.00,WeatherDisplay:10.37,2013-02-01 14:29:00,
2013-02-01 09:31:00,31.3,12.9,29.06,WNW,293,10.4,10.4,46,0.00,CLR,,0.00,WeatherDisplay:10.37,2013-02-01 14:31:00,
2013-02-01 09:32:00,31.5,13.0,29.06,NW,315,12.7,12.7,46,0.00,CLR,,0.00,WeatherDisplay:10.37,2013-02-01 14:32:00,
2013-02-01 09:33:00,31.5,13.0,29.06,WNW,284,12.7,12.7,46,0.00,CLR,,0.00,WeatherDisplay:10.37,2013-02-01 14:33:00,
2013-02-01 09:34:00,31.5,13.0,29.06,WSW,249,11.5,11.5,46,0.00,CLR,,0.00,WeatherDisplay:10.37,2013-02-01 14:34:00,
2013-02-01 09:36:00,31.6,13.7,29.06,NNW,328,11.5,11.5,47,0.00,CLR,,0.00,WeatherDisplay:10.37,2013-02-01 14:36:00,
2013-02-01 09:37:00,31.6,13.7,29.06,WSW,244,11.6,11.6,47,0.00,CLR,,0.00,WeatherDisplay:10.37,2013-02-01 14:37:00,
2013-02-01 09:38:00,31.6,13.7,29.06,West,280,11.5,11.5,47,0.00,CLR,,0.00,WeatherDisplay:10.37,2013-02-01 14:38:00,
2013-02-01 09:39:00,31.8,13.9,29.06,West,281,13.8,13.8,47,0.00,CLR,,0.00,WeatherDisplay:10.37,2013-02-01 14:39:00,
2013-02-01 09:41:00,32.0,14.0,29.06,WSW,248,9.2,9.2,47,0.00,CLR,,0.00,WeatherDisplay:10.37,2013-02-01 14:41:00,
2013-02-01 09:42:00,32.0,14.0,29.06,West,270,13.8,13.8,47,0.00,CLR,,0.00,WeatherDisplay:10.37,2013-02-01 14:42:00,
2013-02-01 09:43:00,32.0,14.0,29.06,West,272,13.8,13.8,47,0.00,CLR,,0.00,WeatherDisplay:10.37,2013-02-01 14:43:00,
2013-02-01 09:44:00,32.2,14.2,29.06,West,281,9.2,9.2,47,0.00,CLR,,0.00,WeatherDisplay:10.37,2013-02-01 14:44:00,
2013-02-01 09:46:00,32.2,14.2,29.06,SSW,205,10.4,10.4,47,0.00,CLR,,0.00,WeatherDisplay:10.37,2013-02-01 14:46:00,
2013-02-01 09:47:00,32.2,14.2,29.06,West,276,10.4,10.4,47,0.00,CLR,,0.00,WeatherDisplay:10.37,2013-02-01 14:47:00,
2013-02-01 09:48:00,32.2,14.2,29.06,SW,219,10.4,10.4,47,0.00,CLR,,0.00,WeatherDisplay:10.37,2013-02-01 14:48:00,
2013-02-01 09:49:00,32.4,14.4,29.06,West,273,6.9,6.9,47,0.00,CLR,,0.00,WeatherDisplay:10.37,2013-02-01 14:49:00,
2013-02-01 09:51:00,32.5,14.5,29.06,WNW,285,12.7,12.7,47,0.00,CLR,,0.00,WeatherDisplay:10.37,2013-02-01 14:51:00,
2013-02-01 09:52:00,32.5,14.5,29.06,WSW,255,10.4,10.4,47,0.00,CLR,,0.00,WeatherDisplay:10.37,2013-02-01 14:52:00,
2013-02-01 09:53:00,32.7,14.7,29.06,SW,231,10.4,10.4,47,0.00,CLR,,0.00,WeatherDisplay:10.37,2013-02-01 14:53:00,
2013-02-01 09:54:00,32.7,14.7,29.06,West,278,6.9,6.9,47,0.00,CLR,,0.00,WeatherDisplay:10.37,2013-02-01 14:54:00,
2013-02-01 09:56:00,32.9,14.4,29.06,WSW,253,10.4,10.4,46,0.00,CLR,,0.00,WeatherDisplay:10.37,2013-02-01 14:56:00,
2013-02-01 09:58:00,33.1,14.5,29.09,SSW,193,15.0,15.0,46,0.00,CLR,,0.00,WeatherDisplay:10.37,2013-02-01 14:58:00,
2013-02-01 09:59:00,33.1,14.5,29.09,SSW,207,11.5,11.5,46,0.00,CLR,,0.00,WeatherDisplay:10.37,2013-02-01 14:59:00,
2013-02-01 10:01:00,33.3,14.7,29.09,WNW,286,9.2,9.2,46,0.00,CLR,,0.00,WeatherDisplay:10.37,2013-02-01 15:01:00,
2013-02-01 10:03:00,33.3,14.7,29.09,WNW,288,9.2,9.2,46,0.00,CLR,,0.00,WeatherDisplay:10.37,2013-02-01 15:03:00,
2013-02-01 10:05:00,33.3,14.7,29.09,SW,216,9.2,9.2,46,0.00,CLR,,0.00,WeatherDisplay:10.37,2013-02-01 15:05:00,
2013-02-01 10:07:00,33.6,15.0,29.09,WSW,255,8.1,8.1,46,0.00,CLR,,0.00,WeatherDisplay:10.37,2013-02-01 15:07:00,
2013-02-01 10:08:00,33.6,15.0,29.09,SSW,195,11.5,11.5,46,0.00,CLR,,0.00,WeatherDisplay:10.37,2013-02-01 15:08:00,
2013-02-01 10:10:00,33.8,15.2,29.09,West,261,11.5,11.5,46,0.00,CLR,,0.00,WeatherDisplay:10.37,2013-02-01 15:10:00,
2013-02-01 10:12:00,34.0,15.3,29.09,WNW,291,8.1,8.1,46,0.00,CLR,,0.00,WeatherDisplay:10.37,2013-02-01 15:12:00,
2013-02-01 10:13:00,34.2,15.5,29.09,NW,304,9.2,9.2,46,0.00,CLR,,0.00,WeatherDisplay:10.37,2013-02-01 15:13:00,
2013-02-01 10:14:00,34.2,15.5,29.09,West,270,9.2,9.2,46,0.00,CLR,,0.00,WeatherDisplay:10.37,2013-02-01 15:14:00,
2013-02-01 10:15:00,34.3,15.7,29.09,WSW,241,9.2,9.2,46,0.00,CLR,,0.00,WeatherDisplay:10.37,2013-02-01 15:15:00,
2013-02-01 10:17:00,34.3,15.7,29.09,WNW,285,9.2,9.2,46,0.00,CLR,,0.00,WeatherDisplay:10.37,2013-02-01 15:17:00,
2013-02-01 10:18:00,34.5,15.8,29.09,NW,319,10.4,10.4,46,0.00,CLR,,0.00,WeatherDisplay:10.37,2013-02-01 15:18:00,
2013-02-01 10:19:00,34.5,15.8,29.09,WSW,248,10.4,10.4,46,0.00,CLR,,0.00,WeatherDisplay:10.37,2013-02-01 15:19:00,
2013-02-01 10:20:00,34.5,15.8,29.09,WNW,284,12.7,12.7,46,0.00,CLR,,0.00,WeatherDisplay:10.37,2013-02-01 15:20:00,
2013-02-01 10:22:00,34.7,16.0,29.09,WSW,248,11.5,11.5,46,0.00,CLR,,0.00,WeatherDisplay:10.37,2013-02-01 15:22:00,
2013-02-01 10:24:00,34.9,15.7,29.09,West,266,9.2,9.2,45,0.00,CLR,,0.00,WeatherDisplay:10.37,2013-02-01 15:24:00,
2013-02-01 10:25:00,35.1,15.8,29.09,NW,304,11.5,11.5,45,0.00,CLR,,0.00,WeatherDisplay:10.37,2013-02-01 15:25:00,
2013-02-01 10:27:00,35.2,16.0,29.09,West,267,8.1,8.1,45,0.00,CLR,,0.00,WeatherDisplay:10.37,2013-02-01 15:27:00,
2013-02-01 10:29:00,35.4,16.2,29.09,NW,310,5.8,5.8,45,0.00,CLR,,0.00,WeatherDisplay:10.37,2013-02-01 15:29:00,
2013-02-01 10:30:00,35.6,16.3,29.09,West,276,5.8,5.8,45,0.00,CLR,,0.00,WeatherDisplay:10.37,2013-02-01 15:30:00,
2013-02-01 10:32:00,35.6,16.3,29.09,SW,235,8.1,8.1,45,0.00,CLR,,0.00,WeatherDisplay:10.37,2013-02-01 15:32:00,
2013-02-01 10:33:00,35.8,16.5,29.09,NW,307,10.4,10.4,45,0.00,CLR,,0.00,WeatherDisplay:10.37,2013-02-01 15:33:00,
2013-02-01 10:34:00,35.8,16.5,29.09,WSW,256,8.1,8.1,45,0.00,CLR,,0.00,WeatherDisplay:10.37,2013-02-01 15:34:00,
2013-02-01 10:35:00,36.0,16.7,29.09,WNW,287,6.9,6.9,45,0.00,CLR,,0.00,WeatherDisplay:10.37,2013-02-01 15:35:00,
2013-02-01 10:37:00,36.1,16.8,29.09,WNW,282,9.2,9.2,45,0.00,CLR,,0.00,WeatherDisplay:10.37,2013-02-01 15:37:00,
2013-02-01 10:39:00,36.3,17.0,29.09,WNW,297,10.9,10.9,45,0.00,CLR,,0.00,WeatherDisplay:10.37,2013-02-01 15:39:00,
2013-02-01 10:41:00,36.5,17.1,29.09,West,261,9.2,9.2,45,0.00,CLR,,0.00,WeatherDisplay:10.37,2013-02-01 15:41:00,
2013-02-01 10:43:00,36.9,17.5,29.09,West,269,11.5,11.5,45,0.00,CLR,,0.00,WeatherDisplay:10.37,2013-02-01 15:43:00,
2013-02-01 10:44:00,36.9,17.5,29.09,West,278,10.4,10.4,45,0.00,CLR,,0.00,WeatherDisplay:10.37,2013-02-01 15:44:00,
2013-02-01 10:46:00,37.0,17.6,29.09,NW,313,6.9,6.9,45,0.00,CLR,,0.00,WeatherDisplay:10.37,2013-02-01 15:46:00,
2013-02-01 10:48:00,37.2,17.8,29.09,NW,317,9.2,9.2,45,0.00,CLR,,0.00,WeatherDisplay:10.37,2013-02-01 15:48:00,
2013-02-01 10:49:00,37.4,18.0,29.09,WNW,291,9.2,9.2,45,0.00,CLR,,0.00,WeatherDisplay:10.37,2013-02-01 15:49:00,
2013-02-01 10:51:00,37.4,18.0,29.09,WNW,293,9.2,9.2,45,0.00,CLR,,0.00,WeatherDisplay:10.37,2013-02-01 15:51:00,
2013-02-01 10:53:00,37.6,17.6,29.09,SSW,198,6.7,6.7,44,0.00,CLR,,0.00,WeatherDisplay:10.37,2013-02-01 15:53:00,
2013-02-01 10:54:00,37.6,17.6,29.09,WNW,302,5.8,5.8,44,0.00,CLR,,0.00,WeatherDisplay:10.37,2013-02-01 15:54:00,
2013-02-01 10:56:00,37.8,17.8,29.09,WNW,290,9.2,9.2,44,0.00,CLR,,0.00,WeatherDisplay:10.37,2013-02-01 15:56:00,
2013-02-01 10:59:00,37.9,17.9,29.09,West,274,10.4,10.4,44,0.00,CLR,,0.00,WeatherDisplay:10.37,2013-02-01 15:59:00,
2013-02-01 11:01:00,37.9,17.9,29.09,WSW,256,9.2,9.2,44,0.00,CLR,,0.00,WeatherDisplay:10.37,2013-02-01 16:01:00,
2013-02-01 11:04:00,37.9,18.5,29.09,WSW,252,9.2,9.2,45,0.00,CLR,,0.00,WeatherDisplay:10.37,2013-02-01 16:04:00,
2013-02-01 11:06:00,37.9,18.5,29.09,WNW,300,5.8,5.8,45,0.00,CLR,,0.00,WeatherDisplay:10.37,2013-02-01 16:06:00,
2013-02-01 11:09:00,38.1,18.6,29.09,WSW,241,9.2,9.2,45,0.00,CLR,,0.00,WeatherDisplay:10.37,2013-02-01 16:09:00,
2013-02-01 11:10:00,38.1,18.6,29.09,SW,235,10.4,10.4,45,0.00,CLR,,0.00,WeatherDisplay:10.37,2013-02-01 16:10:00,
2013-02-01 11:11:00,38.1,18.6,29.09,SW,231,10.4,10.4,45,0.00,CLR,,0.00,WeatherDisplay:10.37,2013-02-01 16:11:00,
2013-02-01 11:14:00,38.5,18.4,29.12,West,268,9.2,9.2,44,0.00,CLR,,0.00,WeatherDisplay:10.37,2013-02-01 16:14:00,
2013-02-01 11:15:00,38.5,18.4,29.12,West,269,11.5,11.5,44,0.00,CLR,,0.00,WeatherDisplay:10.37,2013-02-01 16:15:00,
2013-02-01 11:16:00,38.7,18.6,29.12,WSW,245,11.5,11.5,44,0.00,CLR,,0.00,WeatherDisplay:10.37,2013-02-01 16:16:00,
2013-02-01 11:19:00,38.8,18.8,29.12,WSW,250,6.0,12.0,44,0.00,CLR,CLR,0.00,WeatherDisplay:10.37,2013-02-01 16:19:00,
2013-02-01 11:20:00,39.0,18.9,29.12,WSW,256,10.9,10.9,44,0.00,CLR,,0.00,WeatherDisplay:10.37,2013-02-01 16:20:00,
2013-02-01 11:21:00,39.0,18.9,29.12,NNW,328,7.4,7.4,44,0.00,CLR,,0.00,WeatherDisplay:10.37,2013-02-01 16:21:00,
2013-02-01 11:24:00,39.4,19.3,29.12,West,267,6.9,6.9,44,0.00,CLR,,0.00,WeatherDisplay:10.37,2013-02-01 16:24:00,
2013-02-01 11:25:00,39.4,19.3,29.12,WNW,285,9.2,9.2,44,0.00,CLR,,0.00,WeatherDisplay:10.37,2013-02-01 16:25:00,
2013-02-01 11:26:00,39.6,19.4,29.12,WNW,282,9.2,9.2,44,0.00,CLR,,0.00,WeatherDisplay:10.37,2013-02-01 16:26:00,
2013-02-01 11:29:00,39.7,19.6,29.12,West,270,9.2,9.2,44,0.00,CLR,,0.00,WeatherDisplay:10.37,2013-02-01 16:29:00,
2013-02-01 11:30:00,39.7,19.6,29.12,WNW,290,9.2,9.2,44,0.00,CLR,,0.00,WeatherDisplay:10.37,2013-02-01 16:30:00,
2013-02-01 11:31:00,39.9,19.7,29.12,West,261,9.2,9.2,44,0.00,CLR,,0.00,WeatherDisplay:10.37,2013-02-01 16:31:00,
2013-02-01 11:34:00,40.3,20.1,29.12,WSW,252,9.2,9.2,44,0.00,CLR,,0.00,WeatherDisplay:10.37,2013-02-01 16:34:00,
2013-02-01 11:35:00,40.5,20.2,29.12,WSW,240,6.9,6.9,44,0.00,CLR,,0.00,WeatherDisplay:10.37,2013-02-01 16:35:00,
2013-02-01 11:36:00,40.5,20.2,29.12,WNW,295,5.8,5.8,44,0.00,CLR,,0.00,WeatherDisplay:10.37,2013-02-01 16:36:00,
2013-02-01 11:39:00,41.0,20.7,29.12,WNW,289,11.5,11.5,44,0.00,CLR,,0.00,WeatherDisplay:10.37,2013-02-01 16:39:00,
2013-02-01 11:40:00,41.2,20.9,29.12,WNW,295,11.5,11.5,44,0.00,CLR,,0.00,WeatherDisplay:10.37,2013-02-01 16:40:00,
2013-02-01 11:41:00,41.2,20.9,29.12,WNW,300,9.2,9.2,44,0.00,CLR,,0.00,WeatherDisplay:10.37,2013-02-01 16:41:00,
2013-02-01 11:44:00,41.5,20.7,29.12,WNW,302,9.2,9.2,43,0.00,CLR,,0.00,WeatherDisplay:10.37,2013-02-01 16:44:00,
2013-02-01 11:45:00,41.5,20.7,29.12,West,274,9.2,9.2,43,0.00,CLR,,0.00,WeatherDisplay:10.37,2013-02-01 16:45:00,
2013-02-01 11:46:00,41.5,20.7,29.12,WNW,286,11.5,11.5,43,0.00,CLR,,0.00,WeatherDisplay:10.37,2013-02-01 16:46:00,
2013-02-01 11:49:00,41.7,20.8,29.12,West,259,9.2,9.2,43,0.00,CLR,,0.00,WeatherDisplay:10.37,2013-02-01 16:49:00,
2013-02-01 11:50:00,41.7,20.8,29.12,WNW,292,6.9,6.9,43,0.00,CLR,,0.00,WeatherDisplay:10.37,2013-02-01 16:50:00,
2013-02-01 11:51:00,41.7,20.8,29.12,WSW,248,6.9,6.9,43,0.00,CLR,,0.00,WeatherDisplay:10.37,2013-02-01 16:51:00,
2013-02-01 11:54:00,41.5,20.7,29.12,WNW,289,10.4,10.4,43,0.00,CLR,,0.00,WeatherDisplay:10.37,2013-02-01 16:54:00,
2013-02-01 11:55:00,41.5,20.7,29.12,WNW,291,11.5,11.5,43,0.00,CLR,,0.00,WeatherDisplay:10.37,2013-02-01 16:55:00,
2013-02-01 11:56:00,41.5,20.7,29.12,NNW,327,10.4,10.4,43,0.00,CLR,,0.00,WeatherDisplay:10.37,2013-02-01 16:56:00,
2013-02-01 11:59:00,41.2,20.3,29.12,West,266,8.1,8.1,43,0.00,CLR,,0.00,WeatherDisplay:10.37,2013-02-01 16:59:00,
2013-02-01 12:00:00,41.2,20.3,29.12,West,278,8.1,8.1,43,0.00,CLR,,0.00,WeatherDisplay:10.37,2013-02-01 17:00:00,
2013-02-01 12:01:00,41.0,20.2,29.12,WSW,237,7.4,7.4,43,0.00,CLR,,0.00,WeatherDisplay:10.37,2013-02-01 17:01:00,
2013-02-01 12:04:00,40.6,19.9,29.12,SSW,211,6.9,6.9,43,0.00,CLR,,0.00,WeatherDisplay:10.37,2013-02-01 17:04:00,
2013-02-01 12:05:00,40.6,19.9,29.12,SW,230,6.9,6.9,43,0.00,CLR,,0.00,WeatherDisplay:10.37,2013-02-01 17:05:00,
2013-02-01 12:07:00,40.5,19.7,29.12,NW,308,8.1,8.1,43,0.00,CLR,,0.00,WeatherDisplay:10.37,2013-02-01 17:07:00,
2013-02-01 12:09:00,40.6,19.9,29.12,West,278,9.2,9.2,43,0.00,CLR,,0.00,WeatherDisplay:10.37,2013-02-01 17:09:00,
2013-02-01 12:10:00,40.6,19.9,29.12,West,279,9.2,9.2,43,0.00,CLR,,0.00,WeatherDisplay:10.37,2013-02-01 17:10:00,
2013-02-01 12:12:00,40.8,20.0,29.12,SW,222,5.8,5.8,43,0.00,CLR,,0.00,WeatherDisplay:10.37,2013-02-01 17:12:00,
2013-02-01 12:14:00,41.2,20.3,29.12,WSW,250,5.8,5.8,43,0.00,CLR,,0.00,WeatherDisplay:10.37,2013-02-01 17:14:00,
2013-02-01 12:15:00,41.4,20.5,29.12,WNW,282,5.8,5.8,43,0.00,CLR,,0.00,WeatherDisplay:10.37,2013-02-01 17:15:00,
2013-02-01 12:17:00,41.7,20.8,29.12,WSW,240,4.6,4.9,43,0.00,CLR,,0.00,WeatherDisplay:10.37,2013-02-01 17:17:00,
2013-02-01 12:19:00,41.9,21.0,29.12,NW,305,11.5,11.5,43,0.00,CLR,,0.00,WeatherDisplay:10.37,2013-02-01 17:19:00,
2013-02-01 12:20:00,42.1,21.2,29.12,WNW,296,11.5,11.5,43,0.00,CLR,,0.00,WeatherDisplay:10.37,2013-02-01 17:20:00,
2013-02-01 12:21:00,42.1,21.2,29.12,West,272,9.2,9.2,43,0.00,CLR,,0.00,WeatherDisplay:10.37,2013-02-01 17:21:00,
2013-02-01 12:22:00,42.1,21.2,29.12,West,276,9.2,9.2,43,0.00,CLR,,0.00,WeatherDisplay:10.37,2013-02-01 17:22:00,
2013-02-01 12:24:00,42.1,21.2,29.12,West,266,11.5,11.5,43,0.00,CLR,,0.00,WeatherDisplay:10.37,2013-02-01 17:24:00,
2013-02-01 12:25:00,42.1,21.2,29.12,West,262,11.5,11.5,43,0.00,CLR,,0.00,WeatherDisplay:10.37,2013-02-01 17:25:00,
2013-02-01 12:26:00,41.9,21.0,29.12,West,263,6.9,6.9,43,0.00,CLR,,0.00,WeatherDisplay:10.37,2013-02-01 17:26:00,
2013-02-01 12:27:00,41.9,21.0,29.12,WSW,238,9.2,9.2,43,0.00,CLR,,0.00,WeatherDisplay:10.37,2013-02-01 17:27:00,
2013-02-01 12:29:00,41.9,21.0,29.12,WNW,288,10.4,10.4,43,0.00,CLR,,0.00,WeatherDisplay:10.37,2013-02-01 17:29:00,
2013-02-01 12:30:00,41.7,20.8,29.12,WNW,294,10.4,10.4,43,0.00,CLR,,0.00,WeatherDisplay:10.37,2013-02-01 17:30:00,
2013-02-01 12:31:00,41.7,20.8,29.12,West,281,9.2,9.2,43,0.00,CLR,,0.00,WeatherDisplay:10.37,2013-02-01 17:31:00,
2013-02-01 12:32:00,41.7,20.8,29.12,West,262,6.9,6.9,43,0.00,CLR,,0.00,WeatherDisplay:10.37,2013-02-01 17:32:00,
2013-02-01 12:34:00,41.5,20.7,29.12,West,259,10.4,10.4,43,0.00,CLR,,0.00,WeatherDisplay:10.37,2013-02-01 17:34:00,
2013-02-01 12:35:00,41.5,20.7,29.12,West,281,10.4,10.4,43,0.00,CLR,,0.00,WeatherDisplay:10.37,2013-02-01 17:35:00,
2013-02-01 12:36:00,41.4,20.5,29.12,WSW,237,5.8,5.8,43,0.00,CLR,,0.00,WeatherDisplay:10.37,2013-02-01 17:36:00,
2013-02-01 12:38:00,41.2,20.3,29.12,SW,236,9.2,9.2,43,0.00,CLR,,0.00,WeatherDisplay:10.37,2013-02-01 17:38:00,
2013-02-01 12:40:00,41.2,20.3,29.12,SW,226,6.3,6.3,43,0.00,CLR,,0.00,WeatherDisplay:10.37,2013-02-01 17:40:00,
2013-02-01 12:41:00,41.0,20.2,29.12,West,273,8.1,8.1,43,0.00,CLR,,0.00,WeatherDisplay:10.37,2013-02-01 17:41:00,
2013-02-01 12:43:00,41.0,20.2,29.12,WSW,254,7.4,7.4,43,0.00,CLR,,0.00,WeatherDisplay:10.37,2013-02-01 17:43:00,
2013-02-01 12:45:00,40.6,19.9,29.12,West,279,10.1,10.1,43,0.00,CLR,,0.00,WeatherDisplay:10.37,2013-02-01 17:45:00,
2013-02-01 12:47:00,40.6,19.9,29.12,WNW,299,10.4,10.4,43,0.00,CLR,,0.00,WeatherDisplay:10.37,2013-02-01 17:47:00,
2013-02-01 12:48:00,40.6,19.9,29.12,SW,223,6.9,6.9,43,0.00,CLR,,0.00,WeatherDisplay:10.37,2013-02-01 17:48:00,
2013-02-01 12:50:00,40.6,19.9,29.12,WSW,243,6.9,6.9,43,0.00,CLR,,0.00,WeatherDisplay:10.37,2013-02-01 17:50:00,
2013-02-01 12:52:00,40.6,19.9,29.12,West,262,8.1,8.1,43,0.00,CLR,,0.00,WeatherDisplay:10.37,2013-02-01 17:52:00,
2013-02-01 12:53:00,40.6,19.9,29.12,SW,227,6.9,6.9,43,0.00,CLR,,0.00,WeatherDisplay:10.37,2013-02-01 17:53:00,
2013-02-01 12:55:00,40.6,19.9,29.12,SW,234,4.6,4.6,43,0.00,CLR,,0.00,WeatherDisplay:10.37,2013-02-01 17:55:00,
2013-02-01 12:56:00,40.6,19.9,29.12,SSW,200,4.6,4.6,43,0.00,CLR,,0.00,WeatherDisplay:10.37,2013-02-01 17:56:00,
2013-02-01 12:57:00,40.6,19.9,29.15,West,272,4.6,4.6,43,0.00,CLR,,0.00,WeatherDisplay:10.37,2013-02-01 17:57:00,
2013-02-01 12:58:00,40.5,19.7,29.15,WSW,237,4.6,4.6,43,0.00,CLR,,0.00,WeatherDisplay:10.37,2013-02-01 17:58:00,
2013-02-01 13:00:00,40.5,19.7,29.15,West,260,11.5,11.5,43,0.00,CLR,,0.00,WeatherDisplay:10.37,2013-02-01 18:00:00,
2013-02-01 13:01:00,40.5,19.7,29.15,SW,218,11.5,11.5,43,0.00,CLR,,0.00,WeatherDisplay:10.37,2013-02-01 18:01:00,
2013-02-01 13:02:00,40.5,19.7,29.15,West,261,12.7,12.7,43,0.00,CLR,,0.00,WeatherDisplay:10.37,2013-02-01 18:02:00,
2013-02-01 13:03:00,40.5,19.7,29.15,SW,225,12.7,12.7,43,0.00,CLR,,0.00,WeatherDisplay:10.37,2013-02-01 18:03:00,
2013-02-01 13:05:00,40.3,19.5,29.15,WSW,252,9.2,9.2,43,0.00,CLR,,0.00,WeatherDisplay:10.37,2013-02-01 18:05:00,
2013-02-01 13:06:00,40.3,19.5,29.15,WSW,242,9.2,9.2,43,0.00,CLR,,0.00,WeatherDisplay:10.37,2013-02-01 18:06:00,
2013-02-01 13:07:00,40.3,19.5,29.15,NW,311,6.9,6.9,43,0.00,CLR,,0.00,WeatherDisplay:10.37,2013-02-01 18:07:00,
2013-02-01 13:08:00,40.3,19.5,29.15,WNW,288,8.1,8.1,43,0.00,CLR,,0.00,WeatherDisplay:10.37,2013-02-01 18:08:00,
2013-02-01 13:10:00,40.3,19.5,29.15,SW,235,11.5,11.5,43,0.00,CLR,,0.00,WeatherDisplay:10.37,2013-02-01 18:10:00,
2013-02-01 13:11:00,40.3,19.5,29.15,SSW,212,11.5,11.5,43,0.00,CLR,,0.00,WeatherDisplay:10.37,2013-02-01 18:11:00,
2013-02-01 13:13:00,40.3,20.1,29.15,WSW,255,10.4,10.4,44,0.00,CLR,,0.00,WeatherDisplay:10.37,2013-02-01 18:13:00,
2013-02-01 13:15:00,40.3,20.1,29.15,WNW,286,9.2,9.2,44,0.00,CLR,,0.00,WeatherDisplay:10.37,2013-02-01 18:15:00,
2013-02-01 13:16:00,40.3,20.1,29.15,West,281,9.2,9.2,44,0.00,CLR,,0.00,WeatherDisplay:10.37,2013-02-01 18:16:00,
2013-02-01 13:18:00,40.3,20.1,29.15,SW,230,9.2,9.2,44,0.00,CLR,,0.00,WeatherDisplay:10.37,2013-02-01 18:18:00,
2013-02-01 13:20:00,40.3,20.1,29.15,NW,316,7.8,7.8,44,0.00,CLR,,0.00,WeatherDisplay:10.37,2013-02-01 18:20:00,
2013-02-01 13:21:00,40.3,20.1,29.15,West,259,7.4,7.4,44,0.00,CLR,,0.00,WeatherDisplay:10.37,2013-02-01 18:21:00,
2013-02-01 13:23:00,40.1,19.9,29.15,West,277,5.8,5.8,44,0.00,CLR,,0.00,WeatherDisplay:10.37,2013-02-01 18:23:00,
2013-02-01 13:25:00,40.1,19.9,29.15,WNW,286,8.1,8.1,44,0.00,CLR,,0.00,WeatherDisplay:10.37,2013-02-01 18:25:00,
2013-02-01 13:26:00,40.1,19.9,29.15,WNW,296,11.5,11.5,44,0.00,CLR,,0.00,WeatherDisplay:10.37,2013-02-01 18:26:00,
2013-02-01 13:28:00,40.1,19.9,29.15,West,259,8.1,8.1,44,0.00,CLR,,0.00,WeatherDisplay:10.37,2013-02-01 18:28:00,
2013-02-01 13:31:00,40.3,20.1,29.15,WSW,240,6.3,6.3,44,0.00,CLR,,0.00,WeatherDisplay:10.37,2013-02-01 18:31:00,
2013-02-01 13:32:00,40.3,20.1,29.15,WSW,237,9.2,9.2,44,0.00,CLR,,0.00,WeatherDisplay:10.37,2013-02-01 18:32:00,
2013-02-01 13:33:00,40.3,20.1,29.15,WNW,283,9.2,9.2,44,0.00,CLR,,0.00,WeatherDisplay:10.37,2013-02-01 18:33:00,
2013-02-01 13:36:00,40.3,19.5,29.15,WSW,251,5.8,5.8,43,0.00,CLR,,0.00,WeatherDisplay:10.37,2013-02-01 18:36:00,
2013-02-01 13:37:00,40.1,19.4,29.15,WSW,257,5.8,5.8,43,0.00,CLR,,0.00,WeatherDisplay:10.37,2013-02-01 18:37:00,
2013-02-01 13:38:00,40.1,19.4,29.15,WNW,300,4.9,4.9,43,0.00,CLR,,0.00,WeatherDisplay:10.37,2013-02-01 18:38:00,
2013-02-01 13:41:00,40.1,19.9,29.15,WNW,294,9.2,9.2,44,0.00,CLR,,0.00,WeatherDisplay:10.37,2013-02-01 18:41:00,
2013-02-01 13:42:00,40.1,19.9,29.12,West,269,5.8,5.8,44,0.00,CLR,,0.00,WeatherDisplay:10.37,2013-02-01 18:42:00,
2013-02-01 13:43:00,39.9,19.7,29.12,WSW,245,9.2,9.2,44,0.00,CLR,,0.00,WeatherDisplay:10.37,2013-02-01 18:43:00,
2013-02-01 13:46:00,39.9,19.7,29.12,West,263,9.2,9.2,44,0.00,CLR,,0.00,WeatherDisplay:10.37,2013-02-01 18:46:00,
2013-02-01 13:47:00,39.7,19.0,29.12,West,274,9.2,9.2,43,0.00,CLR,,0.00,WeatherDisplay:10.37,2013-02-01 18:47:00,
2013-02-01 13:48:00,39.7,19.0,29.12,NW,316,5.8,5.8,43,0.00,CLR,,0.00,WeatherDisplay:10.37,2013-02-01 18:48:00,
2013-02-01 13:49:00,39.7,19.0,29.12,WNW,282,6.7,6.7,43,0.00,CLR,,0.00,WeatherDisplay:10.37,2013-02-01 18:49:00,
2013-02-01 13:51:00,39.7,19.0,29.12,West,277,5.8,5.8,43,0.00,CLR,,0.00,WeatherDisplay:10.37,2013-02-01 18:51:00,
2013-02-01 13:52:00,39.6,18.9,29.12,WNW,287,5.8,5.8,43,0.00,CLR,,0.00,WeatherDisplay:10.37,2013-02-01 18:52:00,
2013-02-01 13:54:00,39.6,18.9,29.12,WSW,252,6.9,6.9,43,0.00,CLR,,0.00,WeatherDisplay:10.37,2013-02-01 18:54:00,
2013-02-01 13:56:00,39.6,19.4,29.12,NW,310,6.9,6.9,44,0.00,CLR,,0.00,WeatherDisplay:10.37,2013-02-01 18:56:00,
2013-02-01 13:57:00,39.6,19.4,29.15,South,180,6.9,6.9,44,0.00,CLR,,0.00,WeatherDisplay:10.37,2013-02-01 18:57:00,
2013-02-01 13:59:00,39.4,19.3,29.15,WSW,245,8.1,8.1,44,0.00,CLR,,0.00,WeatherDisplay:10.37,2013-02-01 18:59:00,
2013-02-01 14:01:00,39.4,19.3,29.15,WNW,302,9.2,9.2,44,0.00,CLR,,0.00,WeatherDisplay:10.37,2013-02-01 19:01:00,
2013-02-01 14:02:00,39.4,18.7,29.15,SW,234,9.2,9.2,43,0.00,CLR,,0.00,WeatherDisplay:10.37,2013-02-01 19:02:00,
2013-02-01 14:04:00,39.2,18.5,29.15,WSW,251,10.4,10.4,43,0.00,CLR,,0.00,WeatherDisplay:10.37,2013-02-01 19:04:00,
2013-02-01 14:06:00,39.2,18.5,29.15,WNW,286,9.2,9.2,43,0.00,CLR,,0.00,WeatherDisplay:10.37,2013-02-01 19:06:00,
2013-02-01 14:07:00,39.2,19.1,29.15,WSW,239,8.1,8.1,44,0.00,CLR,,0.00,WeatherDisplay:10.37,2013-02-01 19:07:00,
2013-02-01 14:09:00,39.2,19.1,29.15,West,275,8.1,8.1,44,0.00,CLR,,0.00,WeatherDisplay:10.37,2013-02-01 19:09:00,
2013-02-01 14:11:00,39.2,19.1,29.15,WSW,255,9.2,9.2,44,0.00,CLR,,0.00,WeatherDisplay:10.37,2013-02-01 19:11:00,
2013-02-01 14:13:00,39.2,19.1,29.15,WNW,300,6.9,6.9,44,0.00,CLR,,0.00,WeatherDisplay:10.37,2013-02-01 19:13:00,
2013-02-01 14:14:00,39.2,19.1,29.15,NW,313,6.9,6.9,44,0.00,CLR,,0.00,WeatherDisplay:10.37,2013-02-01 19:14:00,
2013-02-01 14:17:00,39.2,18.5,29.15,NW,310,3.5,3.5,43,0.00,CLR,,0.00,WeatherDisplay:10.37,2013-02-01 19:17:00,
2013-02-01 14:18:00,39.2,18.5,29.15,WSW,258,5.8,5.8,43,0.00,CLR,,0.00,WeatherDisplay:10.37,2013-02-01 19:18:00,
2013-02-01 14:19:00,39.2,18.5,29.15,WSW,249,4.6,4.6,43,0.00,CLR,,0.00,WeatherDisplay:10.37,2013-02-01 19:19:00,
2013-02-01 14:22:00,39.2,18.5,29.15,WSW,252,5.8,5.8,43,0.00,CLR,,0.00,WeatherDisplay:10.37,2013-02-01 19:22:00,
2013-02-01 14:23:00,39.2,18.5,29.15,WSW,249,6.9,6.9,43,0.00,CLR,,0.00,WeatherDisplay:10.37,2013-02-01 19:23:00,
2013-02-01 14:24:00,39.2,18.5,29.15,WNW,301,5.8,5.8,43,0.00,CLR,,0.00,WeatherDisplay:10.37,2013-02-01 19:24:00,
2013-02-01 14:25:00,39.2,18.5,29.15,WNW,295,4.6,4.6,43,0.00,CLR,,0.00,WeatherDisplay:10.37,2013-02-01 19:25:00,
2013-02-01 14:27:00,39.2,19.1,29.15,NW,319,8.1,8.1,44,0.00,CLR,,0.00,WeatherDisplay:10.37,2013-02-01 19:27:00,
2013-02-01 14:28:00,39.4,19.8,29.15,West,271,11.5,11.5,45,0.00,CLR,,0.00,WeatherDisplay:10.37,2013-02-01 19:28:00,
2013-02-01 14:30:00,39.6,20.5,29.15,West,260,11.5,11.5,46,0.00,CLR,,0.00,WeatherDisplay:10.37,2013-02-01 19:30:00,
2013-02-01 14:32:00,39.9,21.3,29.15,West,281,4.6,0.0,47,0.00,CLR,,0.00,WeatherDisplay:10.37,2013-02-01 19:32:00,
2013-02-01 14:33:00,39.9,20.8,29.15,WSW,256,8.7,8.7,46,0.00,CLR,,0.00,WeatherDisplay:10.37,2013-02-01 19:33:00,
2013-02-01 14:35:00,40.3,21.1,29.15,WNW,287,12.7,12.7,46,0.00,CLR,,0.00,WeatherDisplay:10.37,2013-02-01 19:35:00,
2013-02-01 14:37:00,40.5,21.3,29.15,WSW,239,10.4,10.4,46,0.00,CLR,,0.00,WeatherDisplay:10.37,2013-02-01 19:37:00,
2013-02-01 14:38:00,40.5,20.8,29.15,WNW,294,9.2,9.2,45,0.00,CLR,,0.00,WeatherDisplay:10.37,2013-02-01 19:38:00,
2013-02-01 14:40:00,40.5,20.8,29.15,West,260,12.7,12.7,45,0.00,CLR,,0.00,WeatherDisplay:10.37,2013-02-01 19:40:00,
2013-02-01 14:42:00,40.5,20.8,29.15,West,278,8.1,8.1,45,0.00,CLR,,0.00,WeatherDisplay:10.37,2013-02-01 19:42:00,
2013-02-01 14:44:00,40.5,20.8,29.15,West,276,8.7,8.7,45,0.00,CLR,,0.00,WeatherDisplay:10.37,2013-02-01 19:44:00,
2013-02-01 14:45:00,40.5,20.2,29.15,SW,235,9.2,9.2,44,0.00,CLR,,0.00,WeatherDisplay:10.37,2013-02-01 19:45:00,
2013-02-01 14:48:00,40.3,20.1,29.15,WNW,302,5.8,5.8,44,0.00,CLR,,0.00,WeatherDisplay:10.37,2013-02-01 19:48:00,
2013-02-01 14:49:00,40.3,20.1,29.15,SW,223,10.4,10.4,44,0.00,CLR,,0.00,WeatherDisplay:10.37,2013-02-01 19:49:00,
2013-02-01 14:50:00,40.3,20.1,29.15,West,270,9.2,9.2,44,0.00,CLR,,0.00,WeatherDisplay:10.37,2013-02-01 19:50:00,
2013-02-01 14:51:00,40.3,20.1,29.15,SW,226,9.2,9.2,44,0.00,CLR,,0.00,WeatherDisplay:10.37,2013-02-01 19:51:00,
2013-02-01 14:53:00,40.1,19.9,29.15,West,267,9.2,9.2,44,0.00,CLR,,0.00,WeatherDisplay:10.37,2013-02-01 19:53:00,
2013-02-01 14:54:00,40.1,19.9,29.15,West,268,10.4,10.4,44,0.00,CLR,,0.00,WeatherDisplay:10.37,2013-02-01 19:54:00,
2013-02-01 14:56:00,39.9,19.7,29.15,SSW,198,8.1,8.1,44,0.00,CLR,,0.00,WeatherDisplay:10.37,2013-02-01 19:56:00,
2013-02-01 14:58:00,39.9,19.7,29.15,SW,232,6.9,6.9,44,0.00,CLR,,0.00,WeatherDisplay:10.37,2013-02-01 19:58:00,
2013-02-01 14:59:00,39.9,19.7,29.15,WNW,300,5.8,5.8,44,0.00,CLR,,0.00,WeatherDisplay:10.37,2013-02-01 19:59:00,
2013-02-01 15:01:00,39.7,19.6,29.15,NW,318,6.9,6.9,44,0.00,CLR,,0.00,WeatherDisplay:10.37,2013-02-01 20:01:00,
2013-02-01 15:03:00,39.7,19.6,29.15,West,279,9.2,9.2,44,0.00,CLR,,0.00,WeatherDisplay:10.37,2013-02-01 20:03:00,
2013-02-01 15:04:00,39.7,19.6,29.15,West,272,9.2,9.2,44,0.00,CLR,,0.00,WeatherDisplay:10.37,2013-02-01 20:04:00,
2013-02-01 15:06:00,39.6,19.4,29.15,West,280,8.1,8.1,44,0.00,CLR,,0.00,WeatherDisplay:10.37,2013-02-01 20:06:00,
2013-02-01 15:08:00,39.4,19.3,29.15,SW,233,6.9,6.9,44,0.00,CLR,,0.00,WeatherDisplay:10.37,2013-02-01 20:08:00,
2013-02-01 15:09:00,39.4,19.3,29.15,West,281,5.0,8.0,44,0.00,CLR,CLR,0.00,WeatherDisplay:10.37,2013-02-01 20:09:00,
2013-02-01 15:11:00,39.2,19.1,29.15,WNW,285,4.6,4.6,44,0.00,CLR,,0.00,WeatherDisplay:10.37,2013-02-01 20:11:00,
2013-02-01 15:13:00,39.2,19.1,29.15,WSW,255,9.2,9.2,44,0.00,CLR,,0.00,WeatherDisplay:10.37,2013-02-01 20:13:00,
2013-02-01 15:14:00,39.2,19.1,29.15,WSW,249,11.5,11.5,44,0.00,CLR,,0.00,WeatherDisplay:10.37,2013-02-01 20:14:00,
2013-02-01 15:16:00,39.0,18.9,29.15,NW,313,8.1,8.1,44,0.00,CLR,,0.00,WeatherDisplay:10.37,2013-02-01 20:16:00,
2013-02-01 15:18:00,38.8,18.8,29.15,WNW,299,5.8,5.8,44,0.00,CLR,,0.00,WeatherDisplay:10.37,2013-02-01 20:18:00,
2013-02-01 15:19:00,38.8,18.8,29.15,SW,219,5.8,5.8,44,0.00,CLR,,0.00,WeatherDisplay:10.37,2013-02-01 20:19:00,
2013-02-01 15:21:00,38.8,18.8,29.15,WNW,288,5.8,5.8,44,0.00,CLR,,0.00,WeatherDisplay:10.37,2013-02-01 20:21:00,
2013-02-01 15:23:00,38.8,18.8,29.15,West,264,9.2,9.2,44,0.00,CLR,,0.00,WeatherDisplay:10.37,2013-02-01 20:23:00,
2013-02-01 15:24:00,38.7,18.6,29.15,West,260,9.2,9.2,44,0.00,CLR,,0.00,WeatherDisplay:10.37,2013-02-01 20:24:00,
2013-02-01 15:26:00,38.7,18.1,29.15,WSW,239,9.2,9.2,43,0.00,CLR,,0.00,WeatherDisplay:10.37,2013-02-01 20:26:00,
2013-02-01 15:27:00,38.7,18.1,29.15,SW,232,9.2,9.2,43,0.00,CLR,,0.00,WeatherDisplay:10.37,2013-02-01 20:27:00,
2013-02-01 15:28:00,38.7,18.1,29.15,WSW,256,10.4,10.4,43,0.00,CLR,,0.00,WeatherDisplay:10.37,2013-02-01 20:28:00,
2013-02-01 15:29:00,38.7,18.1,29.15,WNW,284,3.5,3.5,43,0.00,CLR,,0.00,WeatherDisplay:10.37,2013-02-01 20:29:00,
2013-02-01 15:32:00,38.7,18.1,29.15,WNW,286,4.6,4.6,43,0.00,CLR,,0.00,WeatherDisplay:10.37,2013-02-01 20:32:00,
2013-02-01 15:34:00,38.5,17.9,29.15,SSW,208,6.9,6.9,43,0.00,CLR,,0.00,WeatherDisplay:10.37,2013-02-01 20:34:00,
2013-02-01 15:37:00,38.5,17.9,29.15,West,276,6.9,6.9,43,0.00,CLR,,0.00,WeatherDisplay:10.37,2013-02-01 20:37:00,
2013-02-01 15:39:00,38.5,17.9,29.15,West,268,5.8,5.8,43,0.00,CLR,,0.00,WeatherDisplay:10.37,2013-02-01 20:39:00,
2013-02-01 15:42:00,38.5,17.9,29.15,SW,230,6.9,6.9,43,0.00,CLR,,0.00,WeatherDisplay:10.37,2013-02-01 20:42:00,
2013-02-01 15:44:00,38.3,17.7,29.15,West,260,6.9,6.9,43,0.00,CLR,,0.00,WeatherDisplay:10.37,2013-02-01 20:44:00,
2013-02-01 15:45:00,38.3,17.7,29.15,West,279,8.1,8.1,43,0.00,CLR,,0.00,WeatherDisplay:10.37,2013-02-01 20:45:00,
2013-02-01 15:47:00,38.3,18.3,29.15,WSW,249,0.0,0.0,44,0.00,CLR,,0.00,WeatherDisplay:10.37,2013-02-01 20:47:00,
2013-02-01 15:48:00,38.3,18.3,29.15,WNW,296,0.0,0.0,44,0.00,CLR,,0.00,WeatherDisplay:10.37,2013-02-01 20:48:00,
2013-02-01 15:49:00,38.1,18.1,29.15,West,265,9.2,9.2,44,0.00,CLR,,0.00,WeatherDisplay:10.37,2013-02-01 20:49:00,
2013-02-01 15:50:00,38.1,18.1,29.15,WSW,253,9.2,9.2,44,0.00,CLR,,0.00,WeatherDisplay:10.37,2013-02-01 20:50:00,
2013-02-01 15:52:00,38.1,18.1,29.15,SSW,213,9.2,9.2,44,0.00,CLR,,0.00,WeatherDisplay:10.37,2013-02-01 20:52:00,
2013-02-01 15:53:00,38.1,18.1,29.15,West,275,9.2,9.2,44,0.00,CLR,,0.00,WeatherDisplay:10.37,2013-02-01 20:53:00,
2013-02-01 15:54:00,38.1,18.1,29.15,West,273,5.8,5.8,44,0.00,CLR,,0.00,WeatherDisplay:10.37,2013-02-01 20:54:00,
2013-02-01 15:55:00,38.1,18.1,29.15,WSW,242,6.9,6.9,44,0.00,CLR,,0.00,WeatherDisplay:10.37,2013-02-01 20:55:00,
2013-02-01 15:58:00,38.1,18.1,29.15,WNW,282,10.4,10.4,44,0.00,CLR,,0.00,WeatherDisplay:10.37,2013-02-01 20:58:00,
2013-02-01 15:59:00,37.9,17.9,29.15,WSW,243,5.8,5.8,44,0.00,CLR,,0.00,WeatherDisplay:10.37,2013-02-01 20:59:00,
2013-02-01 16:00:00,37.9,17.9,29.15,WNW,295,5.8,5.8,44,0.00,CLR,,0.00,WeatherDisplay:10.37,2013-02-01 21:00:00,
2013-02-01 16:03:00,37.9,17.9,29.15,WNW,288,9.2,9.2,44,0.00,CLR,,0.00,WeatherDisplay:10.37,2013-02-01 21:03:00,
2013-02-01 16:05:00,37.9,17.9,29.15,WSW,255,9.2,9.2,44,0.00,CLR,,0.00,WeatherDisplay:10.37,2013-02-01 21:05:00,
2013-02-01 16:08:00,37.9,17.9,29.15,WSW,240,11.5,11.5,44,0.00,CLR,,0.00,WeatherDisplay:10.37,2013-02-01 21:08:00,
2013-02-01 16:09:00,37.9,17.9,29.15,WNW,298,11.5,11.5,44,0.00,CLR,,0.00,WeatherDisplay:10.37,2013-02-01 21:09:00,
2013-02-01 16:10:00,37.9,17.9,29.15,WNW,297,12.7,12.7,44,0.00,CLR,,0.00,WeatherDisplay:10.37,2013-02-01 21:10:00,
2013-02-01 16:13:00,37.8,17.8,29.18,WNW,299,11.5,11.5,44,0.00,CLR,,0.00,WeatherDisplay:10.37,2013-02-01 21:13:00,
2013-02-01 16:14:00,37.8,17.8,29.18,West,277,11.5,11.5,44,0.00,CLR,,0.00,WeatherDisplay:10.37,2013-02-01 21:14:00,
2013-02-01 16:15:00,37.8,17.8,29.18,SSW,203,6.9,6.9,44,0.00,CLR,,0.00,WeatherDisplay:10.37,2013-02-01 21:15:00,
2013-02-01 16:16:00,37.8,17.2,29.18,WNW,287,6.9,6.9,43,0.00,CLR,,0.00,WeatherDisplay:10.37,2013-02-01 21:16:00,
2013-02-01 16:19:00,37.8,17.2,29.18,WSW,255,11.5,11.5,43,0.00,CLR,,0.00,WeatherDisplay:10.37,2013-02-01 21:19:00,
2013-02-01 16:20:00,37.6,17.1,29.18,WNW,288,5.8,5.8,43,0.00,CLR,,0.00,WeatherDisplay:10.37,2013-02-01 21:20:00,
2013-02-01 16:21:00,37.6,17.1,29.18,SW,233,5.8,5.8,43,0.00,CLR,,0.00,WeatherDisplay:10.37,2013-02-01 21:21:00,
2013-02-01 16:24:00,37.6,17.1,29.18,WSW,238,6.9,6.9,43,0.00,CLR,,0.00,WeatherDisplay:10.37,2013-02-01 21:24:00,
2013-02-01 16:25:00,37.6,17.1,29.18,SSW,193,8.1,8.1,43,0.00,CLR,,0.00,WeatherDisplay:10.37,2013-02-01 21:25:00,
2013-02-01 16:26:00,37.6,17.1,29.18,SSW,211,8.1,8.1,43,0.00,CLR,,0.00,WeatherDisplay:10.37,2013-02-01 21:26:00,
2013-02-01 16:29:00,37.6,17.1,29.18,WNW,301,10.4,10.4,43,0.00,CLR,,0.00,WeatherDisplay:10.37,2013-02-01 21:29:00,
2013-02-01 16:30:00,37.6,17.1,29.18,SSW,197,10.4,10.4,43,0.00,CLR,,0.00,WeatherDisplay:10.37,2013-02-01 21:30:00,
2013-02-01 16:31:00,37.4,16.9,29.18,SSW,204,10.4,10.4,43,0.00,CLR,,0.00,WeatherDisplay:10.37,2013-02-01 21:31:00,
2013-02-01 16:34:00,37.4,16.9,29.18,SW,233,9.2,9.2,43,0.00,CLR,,0.00,WeatherDisplay:10.37,2013-02-01 21:34:00,
2013-02-01 16:35:00,37.4,16.9,29.18,SSW,205,9.2,9.2,43,0.00,CLR,,0.00,WeatherDisplay:10.37,2013-02-01 21:35:00,
2013-02-01 16:36:00,37.4,16.9,29.18,WNW,294,9.2,9.2,43,0.00,CLR,,0.00,WeatherDisplay:10.37,2013-02-01 21:36:00,
2013-02-01 16:39:00,37.2,16.7,29.18,West,281,4.6,4.6,43,0.00,CLR,,0.00,WeatherDisplay:10.37,2013-02-01 21:39:00,
2013-02-01 16:40:00,37.2,16.7,29.18,West,281,4.6,4.6,43,0.00,CLR,,0.00,WeatherDisplay:10.37,2013-02-01 21:40:00,
2013-02-01 16:41:00,37.2,16.7,29.18,WSW,246,7.4,7.4,43,0.00,CLR,,0.00,WeatherDisplay:10.37,2013-02-01 21:41:00,
2013-02-01 16:45:00,37.0,16.6,29.18,SW,220,3.5,0.0,43,0.00,CLR,,0.00,WeatherDisplay:10.37,2013-02-01 21:45:00,
2013-02-01 16:46:00,37.0,16.6,29.18,SSW,212,3.5,3.5,43,0.00,CLR,,0.00,WeatherDisplay:10.37,2013-02-01 21:46:00,
2013-02-01 16:47:00,37.0,16.6,29.18,WSW,251,3.5,3.5,43,0.00,CLR,,0.00,WeatherDisplay:10.37,2013-02-01 21:47:00,
2013-02-01 16:50:00,37.0,16.6,29.18,SSW,205,6.9,6.9,43,0.00,CLR,,0.00,WeatherDisplay:10.37,2013-02-01 21:50:00,
2013-02-01 16:51:00,37.0,16.6,29.18,WNW,287,5.8,5.8,43,0.00,CLR,,0.00,WeatherDisplay:10.37,2013-02-01 21:51:00,
2013-02-01 16:52:00,37.0,16.6,29.18,WNW,289,4.6,4.6,43,0.00,CLR,,0.00,WeatherDisplay:10.37,2013-02-01 21:52:00,
2013-02-01 16:55:00,36.9,16.4,29.18,WSW,258,9.2,9.2,43,0.00,CLR,,0.00,WeatherDisplay:10.37,2013-02-01 21:55:00,
2013-02-01 16:56:00,36.9,16.4,29.18,WSW,252,6.9,6.9,43,0.00,CLR,,0.00,WeatherDisplay:10.37,2013-02-01 21:56:00,
2013-02-01 16:57:00,36.9,16.4,29.18,WSW,255,11.6,11.6,43,0.00,CLR,,0.00,WeatherDisplay:10.37,2013-02-01 21:57:00,
2013-02-01 17:00:00,36.9,16.4,29.18,West,269,6.9,6.9,43,0.00,CLR,,0.00,WeatherDisplay:10.37,2013-02-01 22:00:00,
2013-02-01 17:01:00,36.9,16.4,29.18,West,263,10.4,10.4,43,0.00,CLR,,0.00,WeatherDisplay:10.37,2013-02-01 22:01:00,
2013-02-01 17:03:00,36.7,16.3,29.18,SSW,209,8.1,0.0,43,0.00,CLR,,0.00,WeatherDisplay:10.37,2013-02-01 22:03:00,
2013-02-01 17:05:00,36.7,16.3,29.18,West,276,6.9,6.9,43,0.00,CLR,,0.00,WeatherDisplay:10.37,2013-02-01 22:05:00,
2013-02-01 17:06:00,36.7,16.3,29.18,SSW,212,10.4,10.4,43,0.00,CLR,,0.00,WeatherDisplay:10.37,2013-02-01 22:06:00,
2013-02-01 17:08:00,36.7,16.3,29.18,SW,217,8.1,8.1,43,0.00,CLR,,0.00,WeatherDisplay:10.37,2013-02-01 22:08:00,
2013-02-01 17:10:00,36.7,16.3,29.18,WNW,282,5.8,5.8,43,0.00,CLR,,0.00,WeatherDisplay:10.37,2013-02-01 22:10:00,
2013-02-01 17:11:00,36.7,16.3,29.18,NW,323,4.6,4.6,43,0.00,CLR,,0.00,WeatherDisplay:10.37,2013-02-01 22:11:00,
2013-02-01 17:12:00,36.7,16.3,29.18,West,272,4.6,4.6,43,0.00,CLR,,0.00,WeatherDisplay:10.37,2013-02-01 22:12:00,
2013-02-01 17:13:00,36.7,16.3,29.18,SSW,207,5.8,5.8,43,0.00,CLR,,0.00,WeatherDisplay:10.37,2013-02-01 22:13:00,
2013-02-01 17:15:00,36.7,16.3,29.18,WSW,237,3.5,0.0,43,0.00,CLR,,0.00,WeatherDisplay:10.37,2013-02-01 22:15:00,
2013-02-01 17:17:00,36.7,16.8,29.18,WSW,255,3.5,3.5,44,0.00,CLR,,0.00,WeatherDisplay:10.37,2013-02-01 22:17:00,
2013-02-01 17:18:00,36.7,16.8,29.18,WSW,256,6.9,6.9,44,0.00,CLR,,0.00,WeatherDisplay:10.37,2013-02-01 22:18:00,
2013-02-01 17:20:00,36.7,16.8,29.18,West,280,6.9,6.9,44,0.00,CLR,,0.00,WeatherDisplay:10.37,2013-02-01 22:20:00,
2013-02-01 17:22:00,36.7,16.8,29.18,WSW,254,4.6,4.9,44,0.00,CLR,,0.00,WeatherDisplay:10.37,2013-02-01 22:22:00,
2013-02-01 17:23:00,36.7,16.8,29.18,NW,305,8.1,8.1,44,0.00,CLR,,0.00,WeatherDisplay:10.37,2013-02-01 22:23:00,
2013-02-01 17:25:00,36.5,16.1,29.18,WSW,239,4.9,4.9,43,0.00,CLR,,0.00,WeatherDisplay:10.37,2013-02-01 22:25:00,
2013-02-01 17:27:00,36.5,16.6,29.18,WSW,251,5.8,5.8,44,0.00,CLR,,0.00,WeatherDisplay:10.37,2013-02-01 22:27:00,
2013-02-01 17:28:00,36.5,16.6,29.18,WSW,241,4.6,4.6,44,0.00,CLR,,0.00,WeatherDisplay:10.37,2013-02-01 22:28:00,
2013-02-01 17:30:00,36.3,16.5,29.18,NW,304,4.6,4.6,44,0.00,CLR,,0.00,WeatherDisplay:10.37,2013-02-01 22:30:00,
2013-02-01 17:32:00,36.3,16.5,29.18,WNW,302,8.1,8.1,44,0.00,CLR,,0.00,WeatherDisplay:10.37,2013-02-01 22:32:00,
2013-02-01 17:33:00,36.3,16.5,29.18,WSW,240,5.8,5.8,44,0.00,CLR,,0.00,WeatherDisplay:10.37,2013-02-01 22:33:00,
2013-02-01 17:35:00,36.3,16.5,29.18,WNW,282,6.9,6.9,44,0.00,CLR,,0.00,WeatherDisplay:10.37,2013-02-01 22:35:00,
2013-02-01 17:37:00,36.1,16.3,29.18,WSW,240,5.8,5.8,44,0.00,CLR,,0.00,WeatherDisplay:10.37,2013-02-01 22:37:00,
2013-02-01 17:39:00,36.1,16.3,29.18,WNW,299,3.5,3.5,44,0.00,CLR,,0.00,WeatherDisplay:10.37,2013-02-01 22:39:00,
2013-02-01 17:41:00,36.1,16.3,29.18,WNW,286,3.5,3.5,44,0.00,CLR,,0.00,WeatherDisplay:10.37,2013-02-01 22:41:00,
2013-02-01 17:42:00,36.1,16.3,29.18,West,267,4.6,4.6,44,0.00,CLR,,0.00,WeatherDisplay:10.37,2013-02-01 22:42:00,
2013-02-01 17:43:00,36.1,16.3,29.18,WNW,295,4.6,4.6,44,0.00,CLR,,0.00,WeatherDisplay:10.37,2013-02-01 22:43:00,
2013-02-01 17:44:00,36.1,16.3,29.18,WSW,242,3.5,0.0,44,0.00,CLR,,0.00,WeatherDisplay:10.37,2013-02-01 22:44:00,
2013-02-01 17:46:00,36.0,16.1,29.18,SSE,161,2.7,0.0,44,0.00,CLR,,0.00,WeatherDisplay:10.37,2013-02-01 22:46:00,
2013-02-01 17:47:00,36.0,16.1,29.18,WSW,256,4.6,4.6,44,0.00,CLR,,0.00,WeatherDisplay:10.37,2013-02-01 22:47:00,
2013-02-01 17:48:00,36.0,16.1,29.18,SW,235,4.6,0.0,44,0.00,CLR,,0.00,WeatherDisplay:10.37,2013-02-01 22:48:00,
2013-02-01 17:49:00,36.0,16.1,29.18,SSW,202,3.5,3.6,44,0.00,CLR,,0.00,WeatherDisplay:10.37,2013-02-01 22:49:00,
2013-02-01 17:52:00,36.0,16.1,29.18,West,268,9.2,9.2,44,0.00,CLR,,0.00,WeatherDisplay:10.37,2013-02-01 22:52:00,
2013-02-01 17:53:00,35.8,16.0,29.18,WSW,257,8.1,8.1,44,0.00,CLR,,0.00,WeatherDisplay:10.37,2013-02-01 22:53:00,
2013-02-01 17:54:00,35.8,16.0,29.18,WSW,253,5.8,5.8,44,0.00,CLR,,0.00,WeatherDisplay:10.37,2013-02-01 22:54:00,
2013-02-01 17:57:00,35.8,16.0,29.18,WNW,282,6.9,0.0,44,0.00,CLR,,0.00,WeatherDisplay:10.37,2013-02-01 22:57:00,
2013-02-01 17:58:00,35.8,16.0,29.18,WNW,299,3.5,0.0,44,0.00,CLR,,0.00,WeatherDisplay:10.37,2013-02-01 22:58:00,
2013-02-01 17:59:00,35.8,16.0,29.18,West,280,3.5,3.5,44,0.00,CLR,,0.00,WeatherDisplay:10.37,2013-02-01 22:59:00,
2013-02-01 18:02:00,35.8,16.0,29.18,West,269,6.9,6.9,44,0.00,CLR,,0.00,WeatherDisplay:10.37,2013-02-01 23:02:00,
2013-02-01 18:03:00,35.6,15.8,29.18,West,264,7.4,7.4,44,0.00,CLR,,0.00,WeatherDisplay:10.37,2013-02-01 23:03:00,
2013-02-01 18:04:00,35.6,15.8,29.18,SSE,163,9.2,9.2,44,0.00,CLR,,0.00,WeatherDisplay:10.37,2013-02-01 23:04:00,
2013-02-01 18:07:00,35.6,15.8,29.18,SW,236,5.8,5.8,44,0.00,CLR,,0.00,WeatherDisplay:10.37,2013-02-01 23:07:00,
2013-02-01 18:08:00,35.6,15.3,29.18,West,267,6.7,6.7,43,0.00,CLR,,0.00,WeatherDisplay:10.37,2013-02-01 23:08:00,
2013-02-01 18:09:00,35.6,15.3,29.18,SSW,208,11.5,11.5,43,0.00,CLR,,0.00,WeatherDisplay:10.37,2013-02-01 23:09:00,
2013-02-01 18:12:00,35.6,15.3,29.18,West,261,6.9,6.9,43,0.00,CLR,,0.00,WeatherDisplay:10.37,2013-02-01 23:12:00,
2013-02-01 18:14:00,35.4,15.1,29.18,SW,214,6.3,6.3,43,0.00,CLR,,0.00,WeatherDisplay:10.37,2013-02-01 23:14:00,
2013-02-01 18:17:00,35.4,15.1,29.18,WSW,256,5.8,0.0,43,0.00,CLR,,0.00,WeatherDisplay:10.37,2013-02-01 23:17:00,
2013-02-01 18:19:00,35.4,15.1,29.18,WNW,295,3.1,0.0,43,0.00,CLR,,0.00,WeatherDisplay:10.37,2013-02-01 23:19:00,
2013-02-01 18:22:00,35.2,14.9,29.18,WNW,289,5.8,5.8,43,0.00,CLR,,0.00,WeatherDisplay:10.37,2013-02-01 23:22:00,
2013-02-01 18:24:00,35.2,14.9,29.18,South,190,10.5,10.5,43,0.00,CLR,,0.00,WeatherDisplay:10.37,2013-02-01 23:24:00,
2013-02-01 18:27:00,35.2,14.9,29.18,SW,214,6.9,6.9,43,0.00,CLR,,0.00,WeatherDisplay:10.37,2013-02-01 23:27:00,
2013-02-01 18:28:00,35.2,14.9,29.18,West,259,7.8,7.8,43,0.00,CLR,,0.00,WeatherDisplay:10.37,2013-02-01 23:28:00,
2013-02-01 18:29:00,35.2,14.9,29.18,West,268,8.1,8.1,43,0.00,CLR,,0.00,WeatherDisplay:10.37,2013-02-01 23:29:00,
2013-02-01 18:32:00,35.1,14.8,29.18,WSW,251,9.2,9.2,43,0.00,CLR,,0.00,WeatherDisplay:10.37,2013-02-01 23:32:00,
2013-02-01 18:33:00,35.1,14.8,29.18,SW,225,9.2,9.2,43,0.00,CLR,,0.00,WeatherDisplay:10.37,2013-02-01 23:33:00,
2013-02-01 18:34:00,35.1,14.8,29.18,WNW,285,4.6,4.9,43,0.00,CLR,,0.00,WeatherDisplay:10.37,2013-02-01 23:34:00,
2013-02-01 18:37:00,35.1,14.8,29.18,WNW,288,5.8,5.8,43,0.00,CLR,,0.00,WeatherDisplay:10.37,2013-02-01 23:37:00,
2013-02-01 18:38:00,35.1,14.8,29.18,NW,305,5.8,5.8,43,0.00,CLR,,0.00,WeatherDisplay:10.37,2013-02-01 23:38:00,
2013-02-01 18:39:00,34.9,14.6,29.18,SW,220,6.7,6.7,43,0.00,CLR,,0.00,WeatherDisplay:10.37,2013-02-01 23:39:00,
2013-02-01 18:40:00,34.9,14.6,29.18,WSW,249,5.8,5.8,43,0.00,CLR,,0.00,WeatherDisplay:10.37,2013-02-01 23:40:00,
2013-02-01 18:42:00,34.9,14.6,29.18,West,277,4.6,4.6,43,0.00,CLR,,0.00,WeatherDisplay:10.37,2013-02-01 23:42:00,
2013-02-01 18:43:00,34.9,14.6,29.18,WSW,243,4.6,4.6,43,0.00,CLR,,0.00,WeatherDisplay:10.37,2013-02-01 23:43:00,
2013-02-01 18:44:00,34.9,14.6,29.18,WSW,245,6.9,6.9,43,0.00,CLR,,0.00,WeatherDisplay:10.37,2013-02-01 23:44:00,
2013-02-01 18:45:00,34.9,14.6,29.18,SW,235,5.8,5.8,43,0.00,CLR,,0.00,WeatherDisplay:10.37,2013-02-01 23:45:00,
2013-02-01 18:48:00,34.9,14.6,29.18,WNW,296,6.9,6.9,43,0.00,CLR,,0.00,WeatherDisplay:10.37,2013-02-01 23:48:00,
2013-02-01 18:50:00,34.7,14.5,29.18,West,260,3.5,0.0,43,0.00,CLR,,0.00,WeatherDisplay:10.37,2013-02-01 23:50:00,
2013-02-01 18:53:00,34.7,14.5,29.18,South,175,3.5,3.5,43,0.00,CLR,,0.00,WeatherDisplay:10.37,2013-02-01 23:53:00,
2013-02-01 18:55:00,34.7,15.0,29.18,SSW,207,4.6,4.6,44,0.00,CLR,,0.00,WeatherDisplay:10.37,2013-02-01 23:55:00,
2013-02-01 18:58:00,34.7,15.0,29.18,West,270,5.8,5.8,44,0.00,CLR,,0.00,WeatherDisplay:10.37,2013-02-01 23:58:00,
2013-02-01 19:00:00,34.7,15.0,29.18,West,279,3.5,3.5,44,0.00,CLR,,0.00,WeatherDisplay:10.37,2013-02-02 00:00:00,
2013-02-01 19:03:00,34.7,15.0,29.18,WSW,239,0.0,0.0,44,0.00,CLR,,0.00,WeatherDisplay:10.37,2013-02-02 00:03:00,
2013-02-01 19:04:00,34.7,15.0,29.18,SW,235,0.0,0.0,44,0.00,CLR,,0.00,WeatherDisplay:10.37,2013-02-02 00:04:00,
2013-02-01 19:05:00,34.7,15.0,29.18,WSW,238,6.7,6.7,44,0.00,CLR,,0.00,WeatherDisplay:10.37,2013-02-02 00:05:00,
2013-02-01 19:08:00,34.7,15.0,29.18,SSW,212,5.8,0.0,44,0.00,CLR,,0.00,WeatherDisplay:10.37,2013-02-02 00:08:00,
2013-02-01 19:09:00,34.7,15.0,29.18,WSW,247,5.8,5.8,44,0.00,CLR,,0.00,WeatherDisplay:10.37,2013-02-02 00:09:00,
2013-02-01 19:10:00,34.7,15.0,29.18,West,270,5.8,5.8,44,0.00,CLR,,0.00,WeatherDisplay:10.37,2013-02-02 00:10:00,
2013-02-01 19:13:00,34.5,14.8,29.18,South,191,6.9,0.0,44,0.00,CLR,,0.00,WeatherDisplay:10.37,2013-02-02 00:13:00,
2013-02-01 19:14:00,34.5,14.8,29.18,SW,219,6.9,6.9,44,0.00,CLR,,0.00,WeatherDisplay:10.37,2013-02-02 00:14:00,
2013-02-01 19:15:00,34.5,14.8,29.18,NW,322,5.4,5.4,44,0.00,CLR,,0.00,WeatherDisplay:10.37,2013-02-02 00:15:00,
2013-02-01 19:18:00,34.5,14.8,29.18,WNW,286,3.5,3.5,44,0.00,CLR,,0.00,WeatherDisplay:10.37,2013-02-02 00:18:00,
2013-02-01 19:19:00,34.5,14.8,29.18,South,186,6.9,6.9,44,0.00,CLR,,0.00,WeatherDisplay:10.37,2013-02-02 00:19:00,
2013-02-01 19:20:00,34.5,14.8,29.18,West,272,6.9,6.9,44,0.00,CLR,,0.00,WeatherDisplay:10.37,2013-02-02 00:20:00,
2013-02-01 19:21:00,34.5,14.8,29.18,WNW,294,6.9,6.9,44,0.00,CLR,,0.00,WeatherDisplay:10.37,2013-02-02 00:21:00,
2013-02-01 19:23:00,34.5,14.8,29.18,WSW,251,3.5,3.5,44,0.00,CLR,,0.00,WeatherDisplay:10.37,2013-02-02 00:23:00,
2013-02-01 19:24:00,34.5,14.8,29.18,WSW,248,1.0,7.0,44,0.00,CLR,CLR,0.00,WeatherDisplay:10.37,2013-02-02 00:24:00,
2013-02-01 19:25:00,34.5,14.8,29.18,SSW,199,4.6,4.6,44,0.00,CLR,,0.00,WeatherDisplay:10.37,2013-02-02 00:25:00,
2013-02-01 19:26:00,34.5,14.8,29.18,SSW,197,6.3,6.3,44,0.00,CLR,,0.00,WeatherDisplay:10.37,2013-02-02 00:26:00,
2013-02-01 19:28:00,34.5,14.8,29.18,West,268,9.2,9.2,44,0.00,CLR,,0.00,WeatherDisplay:10.37,2013-02-02 00:28:00,
2013-02-01 19:29:00,34.5,14.8,29.18,WSW,252,5.0,9.0,44,0.00,CLR,CLR,0.00,WeatherDisplay:10.37,2013-02-02 00:29:00,
2013-02-01 19:31:00,34.5,14.8,29.18,West,264,3.5,0.0,44,0.00,CLR,,0.00,WeatherDisplay:10.37,2013-02-02 00:31:00,
2013-02-01 19:33:00,34.5,14.8,29.18,SW,234,9.2,9.2,44,0.00,CLR,,0.00,WeatherDisplay:10.37,2013-02-02 00:33:00,
2013-02-01 19:34:00,34.5,14.8,29.18,West,272,5.8,5.8,44,0.00,CLR,,0.00,WeatherDisplay:10.37,2013-02-02 00:34:00,
2013-02-01 19:36:00,34.5,14.8,29.18,NW,305,6.9,6.9,44,0.00,CLR,,0.00,WeatherDisplay:10.37,2013-02-02 00:36:00,
2013-02-01 19:37:00,34.3,14.7,29.18,WSW,251,10.4,10.4,44,0.00,CLR,,0.00,WeatherDisplay:10.37,2013-02-02 00:37:00,
2013-02-01 19:38:00,34.3,14.7,29.18,SSW,212,6.9,6.9,44,0.00,CLR,,0.00,WeatherDisplay:10.37,2013-02-02 00:38:00,
2013-02-01 19:39:00,34.3,14.7,29.18,NW,304,3.5,0.0,44,0.00,CLR,,0.00,WeatherDisplay:10.37,2013-02-02 00:39:00,
2013-02-01 19:41:00,34.3,14.7,29.18,West,272,4.6,4.6,44,0.00,CLR,,0.00,WeatherDisplay:10.37,2013-02-02 00:41:00,
2013-02-01 19:42:00,34.3,14.7,29.20,WSW,253,5.8,5.8,44,0.00,CLR,,0.00,WeatherDisplay:10.37,2013-02-02 00:42:00,
2013-02-01 19:43:00,34.3,14.7,29.20,SW,235,4.6,0.0,44,0.00,CLR,,0.00,WeatherDisplay:10.37,2013-02-02 00:43:00,
2013-02-01 19:44:00,34.3,14.7,29.20,SW,236,5.8,5.8,44,0.00,CLR,,0.00,WeatherDisplay:10.37,2013-02-02 00:44:00,
2013-02-01 19:46:00,34.3,14.7,29.20,SSW,196,6.9,6.9,44,0.00,CLR,,0.00,WeatherDisplay:10.37,2013-02-02 00:46:00,
2013-02-01 19:47:00,34.3,14.7,29.20,WSW,248,7.4,7.4,44,0.00,CLR,,0.00,WeatherDisplay:10.37,2013-02-02 00:47:00,
2013-02-01 19:48:00,34.3,14.7,29.20,WNW,300,13.8,13.8,44,0.00,CLR,,0.00,WeatherDisplay:10.37,2013-02-02 00:48:00,
2013-02-01 19:50:00,34.3,14.7,29.20,WSW,239,6.9,6.9,44,0.00,CLR,,0.00,WeatherDisplay:10.37,2013-02-02 00:50:00,
2013-02-01 19:51:00,34.3,14.7,29.20,WNW,296,6.9,6.9,44,0.00,CLR,,0.00,WeatherDisplay:10.37,2013-02-02 00:51:00,
2013-02-01 19:52:00,34.2,14.5,29.20,West,265,6.9,6.9,44,0.00,CLR,,0.00,WeatherDisplay:10.37,2013-02-02 00:52:00,
2013-02-01 19:53:00,34.2,14.5,29.20,SW,230,5.8,5.8,44,0.00,CLR,,0.00,WeatherDisplay:10.37,2013-02-02 00:53:00,
2013-02-01 19:54:00,32.2,12.2,29.20,WNW,289,5.8,5.8,43,0.00,CLR,,0.00,WeatherDisplay:10.37,2013-02-02 00:54:00,
2013-02-01 19:55:00,34.2,14.5,29.20,WSW,239,5.8,5.8,44,0.00,CLR,,0.00,WeatherDisplay:10.37,2013-02-02 00:55:00,
2013-02-01 19:56:00,34.2,14.0,29.20,SW,230,6.9,6.9,43,0.00,CLR,,0.00,WeatherDisplay:10.37,2013-02-02 00:56:00,
2013-02-01 19:57:00,34.2,14.0,29.20,WSW,252,6.9,6.9,43,0.00,CLR,,0.00,WeatherDisplay:10.37,2013-02-02 00:57:00,
2013-02-01 19:58:00,34.2,14.0,29.20,WSW,242,8.1,8.1,43,0.00,CLR,,0.00,WeatherDisplay:10.37,2013-02-02 00:58:00,
2013-02-01 20:00:00,34.0,13.8,29.20,West,280,8.1,8.1,43,0.00,CLR,,0.00,WeatherDisplay:10.37,2013-02-02 01:00:00,
2013-02-01 20:02:00,34.0,13.8,29.20,West,266,5.8,5.8,43,0.00,CLR,,0.00,WeatherDisplay:10.37,2013-02-02 01:02:00,
2013-02-01 20:03:00,34.0,13.8,29.20,WSW,248,5.8,5.8,43,0.00,CLR,,0.00,WeatherDisplay:10.37,2013-02-02 01:03:00,
2013-02-01 20:05:00,34.0,13.8,29.20,West,272,6.9,6.9,43,0.00,CLR,,0.00,WeatherDisplay:10.37,2013-02-02 01:05:00,
2013-02-01 20:07:00,34.0,13.8,29.20,SSW,193,5.8,5.8,43,0.00,CLR,,0.00,WeatherDisplay:10.37,2013-02-02 01:07:00,
2013-02-01 20:08:00,34.0,13.8,29.20,West,273,3.5,3.5,43,0.00,CLR,,0.00,WeatherDisplay:10.37,2013-02-02 01:08:00,
2013-02-01 20:10:00,34.0,13.8,29.20,WSW,239,6.7,6.7,43,0.00,CLR,,0.00,WeatherDisplay:10.37,2013-02-02 01:10:00,
2013-02-01 20:12:00,34.0,13.8,29.20,WSW,252,6.9,6.9,43,0.00,CLR,,0.00,WeatherDisplay:10.37,2013-02-02 01:12:00,
2013-02-01 20:13:00,33.8,13.6,29.20,West,268,8.1,8.1,43,0.00,CLR,,0.00,WeatherDisplay:10.37,2013-02-02 01:13:00,
2013-02-01 20:15:00,33.8,13.6,29.20,West,266,8.1,8.1,43,0.00,CLR,,0.00,WeatherDisplay:10.37,2013-02-02 01:15:00,
2013-02-01 20:17:00,33.8,13.6,29.20,WNW,283,6.3,6.3,43,0.00,CLR,,0.00,WeatherDisplay:10.37,2013-02-02 01:17:00,
2013-02-01 20:19:00,33.8,13.6,29.20,SW,236,6.9,6.9,43,0.00,CLR,,0.00,WeatherDisplay:10.37,2013-02-02 01:19:00,
2013-02-01 20:20:00,33.8,13.6,29.20,WSW,255,5.4,5.4,43,0.00,CLR,,0.00,WeatherDisplay:10.37,2013-02-02 01:20:00,
2013-02-01 20:22:00,33.8,13.6,29.20,WSW,238,6.3,6.3,43,0.00,CLR,,0.00,WeatherDisplay:10.37,2013-02-02 01:22:00,
2013-02-01 20:24:00,33.8,13.6,29.20,SSW,195,6.9,6.9,43,0.00,CLR,,0.00,WeatherDisplay:10.37,2013-02-02 01:24:00,
2013-02-01 20:25:00,33.8,13.6,29.20,South,190,6.9,6.9,43,0.00,CLR,,0.00,WeatherDisplay:10.37,2013-02-02 01:25:00,
2013-02-01 20:27:00,33.8,13.6,29.20,WSW,256,6.9,6.9,43,0.00,CLR,,0.00,WeatherDisplay:10.37,2013-02-02 01:27:00,
2013-02-01 20:29:00,33.8,13.6,29.20,WNW,297,4.6,4.6,43,0.00,CLR,,0.00,WeatherDisplay:10.37,2013-02-02 01:29:00,
2013-02-01 20:30:00,33.8,13.6,29.20,WNW,296,5.8,5.8,43,0.00,CLR,,0.00,WeatherDisplay:10.37,2013-02-02 01:30:00,
2013-02-01 20:32:00,33.8,13.6,29.20,SW,229,6.9,6.9,43,0.00,CLR,,0.00,WeatherDisplay:10.37,2013-02-02 01:32:00,
2013-02-01 20:34:00,33.6,13.5,29.20,West,268,6.9,6.9,43,0.00,CLR,,0.00,WeatherDisplay:10.37,2013-02-02 01:34:00,
2013-02-01 20:35:00,33.6,13.5,29.20,SW,231,5.8,5.8,43,0.00,CLR,,0.00,WeatherDisplay:10.37,2013-02-02 01:35:00,
2013-02-01 20:37:00,33.6,13.5,29.20,SW,222,5.8,5.8,43,0.00,CLR,,0.00,WeatherDisplay:10.37,2013-02-02 01:37:00,
2013-02-01 20:39:00,33.6,13.5,29.20,WSW,251,6.9,6.9,43,0.00,CLR,,0.00,WeatherDisplay:10.37,2013-02-02 01:39:00,
2013-02-01 20:41:00,33.6,13.5,29.20,West,269,6.9,6.9,43,0.00,CLR,,0.00,WeatherDisplay:10.37,2013-02-02 01:41:00,
2013-02-01 20:42:00,33.6,13.5,29.20,WSW,238,8.3,8.3,43,0.00,CLR,,0.00,WeatherDisplay:10.37,2013-02-02 01:42:00,
2013-02-01 20:44:00,33.6,13.5,29.20,SSW,204,5.8,5.8,43,0.00,CLR,,0.00,WeatherDisplay:10.37,2013-02-02 01:44:00,
2013-02-01 20:46:00,33.8,14.7,29.20,WSW,249,6.9,6.9,45,0.00,CLR,,0.00,WeatherDisplay:10.37,2013-02-02 01:46:00,
2013-02-01 20:47:00,34.0,15.8,29.20,West,275,5.8,5.8,47,0.00,CLR,,0.00,WeatherDisplay:10.37,2013-02-02 01:47:00,
2013-02-01 20:48:00,34.0,15.8,29.20,SW,234,5.8,5.8,47,0.00,CLR,,0.00,WeatherDisplay:10.37,2013-02-02 01:48:00,
2013-02-01 20:49:00,34.3,16.7,29.20,SSW,197,10.9,0.0,48,0.00,CLR,,0.00,WeatherDisplay:10.37,2013-02-02 01:49:00,
2013-02-01 20:51:00,34.3,16.7,29.20,WSW,248,11.5,11.5,48,0.00,CLR,,0.00,WeatherDisplay:10.37,2013-02-02 01:51:00,
2013-02-01 20:52:00,34.5,16.3,29.20,WSW,243,6.9,6.9,47,0.00,CLR,,0.00,WeatherDisplay:10.37,2013-02-02 01:52:00,
2013-02-01 20:53:00,34.5,16.3,29.20,SW,214,6.9,6.9,47,0.00,CLR,,0.00,WeatherDisplay:10.37,2013-02-02 01:53:00,
2013-02-01 20:54:00,34.5,16.3,29.20,SW,225,8.1,8.1,47,0.00,CLR,,0.00,WeatherDisplay:10.37,2013-02-02 01:54:00,
2013-02-01 20:56:00,34.5,16.3,29.20,WSW,245,8.1,8.1,47,0.00,CLR,,0.00,WeatherDisplay:10.37,2013-02-02 01:56:00,
2013-02-01 20:57:00,34.5,15.8,29.20,SSW,210,4.9,4.9,46,0.00,CLR,,0.00,WeatherDisplay:10.37,2013-02-02 01:57:00,
2013-02-01 20:58:00,34.5,15.8,29.20,West,261,4.6,4.6,46,0.00,CLR,,0.00,WeatherDisplay:10.37,2013-02-02 01:58:00,
2013-02-01 20:59:00,34.5,15.8,29.20,WSW,249,5.8,5.8,46,0.00,CLR,,0.00,WeatherDisplay:10.37,2013-02-02 01:59:00,
2013-02-01 21:01:00,34.5,15.8,29.20,SSW,200,4.6,4.6,46,0.00,CLR,,0.00,WeatherDisplay:10.37,2013-02-02 02:01:00,
2013-02-01 21:02:00,34.3,15.7,29.20,SSW,213,6.9,6.9,46,0.00,CLR,,0.00,WeatherDisplay:10.37,2013-02-02 02:02:00,
2013-02-01 21:03:00,34.3,15.2,29.20,SSW,213,6.9,6.9,45,0.00,CLR,,0.00,WeatherDisplay:10.37,2013-02-02 02:03:00,
2013-02-01 21:05:00,34.3,15.2,29.20,SSE,165,8.3,8.3,45,0.00,CLR,,0.00,WeatherDisplay:10.37,2013-02-02 02:05:00,
2013-02-01 21:06:00,34.3,15.2,29.20,WNW,290,9.2,9.2,45,0.00,CLR,,0.00,WeatherDisplay:10.37,2013-02-02 02:06:00,
2013-02-01 21:07:00,34.3,15.2,29.20,SW,215,9.2,9.2,45,0.00,CLR,,0.00,WeatherDisplay:10.37,2013-02-02 02:07:00,
2013-02-01 21:08:00,34.2,15.0,29.20,West,271,10.4,10.4,45,0.00,CLR,,0.00,WeatherDisplay:10.37,2013-02-02 02:08:00,
2013-02-01 21:10:00,34.2,15.0,29.20,NW,309,10.4,10.4,45,0.00,CLR,,0.00,WeatherDisplay:10.37,2013-02-02 02:10:00,
2013-02-01 21:11:00,34.2,15.0,29.20,WSW,241,10.4,10.4,45,0.00,CLR,,0.00,WeatherDisplay:10.37,2013-02-02 02:11:00,
2013-02-01 21:12:00,34.0,14.3,29.18,WNW,284,9.2,9.2,44,0.00,CLR,,0.00,WeatherDisplay:10.37,2013-02-02 02:12:00,
2013-02-01 21:14:00,34.0,14.3,29.18,SSW,207,8.1,8.1,44,0.00,CLR,,0.00,WeatherDisplay:10.37,2013-02-02 02:14:00,
2013-02-01 21:15:00,34.0,14.3,29.18,WNW,287,5.8,5.8,44,0.00,CLR,,0.00,WeatherDisplay:10.37,2013-02-02 02:15:00,
2013-02-01 21:17:00,34.0,14.3,29.18,SW,227,4.0,4.0,44,0.00,CLR,,0.00,WeatherDisplay:10.37,2013-02-02 02:17:00,
2013-02-01 21:19:00,33.8,14.2,29.18,WSW,255,11.5,11.5,44,0.00,CLR,,0.00,WeatherDisplay:10.37,2013-02-02 02:19:00,
2013-02-01 21:20:00,33.8,14.2,29.18,SW,232,6.9,6.9,44,0.00,CLR,,0.00,WeatherDisplay:10.37,2013-02-02 02:20:00,
2013-02-01 21:22:00,33.8,14.2,29.18,WSW,253,9.2,9.2,44,0.00,CLR,,0.00,WeatherDisplay:10.37,2013-02-02 02:22:00,
2013-02-01 21:23:00,33.8,14.2,29.18,WSW,254,9.2,0.0,44,0.00,CLR,,0.00,WeatherDisplay:10.37,2013-02-02 02:23:00,
2013-02-01 21:24:00,33.6,14.0,29.18,WSW,247,5.4,0.0,44,0.00,CLR,,0.00,WeatherDisplay:10.37,2013-02-02 02:24:00,
2013-02-01 21:25:00,33.6,14.0,29.18,South,177,6.9,6.9,44,0.00,CLR,,0.00,WeatherDisplay:10.37,2013-02-02 02:25:00,
2013-02-01 21:27:00,33.6,14.0,29.20,West,264,8.1,8.1,44,0.00,CLR,,0.00,WeatherDisplay:10.37,2013-02-02 02:27:00,
2013-02-01 21:28:00,33.6,14.0,29.20,SW,216,3.5,3.5,44,0.00,CLR,,0.00,WeatherDisplay:10.37,2013-02-02 02:28:00,
2013-02-01 21:29:00,33.6,14.0,29.20,SW,228,3.0,11.0,44,0.00,CLR,CLR,0.00,WeatherDisplay:10.37,2013-02-02 02:29:00,
2013-02-01 21:30:00,33.6,14.0,29.20,SW,228,10.4,10.4,44,0.00,CLR,,0.00,WeatherDisplay:10.37,2013-02-02 02:30:00,
2013-02-01 21:32:00,33.6,14.0,29.20,WSW,238,9.2,9.2,44,0.00,CLR,,0.00,WeatherDisplay:10.37,2013-02-02 02:32:00,
2013-02-01 21:33:00,33.6,14.0,29.20,SW,228,10.5,10.5,44,0.00,CLR,,0.00,WeatherDisplay:10.37,2013-02-02 02:33:00,
2013-02-01 21:34:00,33.4,13.8,29.20,WSW,237,10.4,10.4,44,0.00,CLR,,0.00,WeatherDisplay:10.37,2013-02-02 02:34:00,
2013-02-01 21:35:00,33.4,13.8,29.20,WSW,237,10.4,10.4,44,0.00,CLR,,0.00,WeatherDisplay:10.37,2013-02-02 02:35:00,
2013-02-01 21:37:00,33.4,13.8,29.20,SW,230,9.2,9.2,44,0.00,CLR,,0.00,WeatherDisplay:10.37,2013-02-02 02:37:00,
2013-02-01 21:38:00,33.4,13.8,29.20,WNW,294,9.2,9.2,44,0.00,CLR,,0.00,WeatherDisplay:10.37,2013-02-02 02:38:00,
2013-02-01 21:39:00,33.4,13.8,29.20,West,261,6.9,6.9,44,0.00,CLR,,0.00,WeatherDisplay:10.37,2013-02-02 02:39:00,
2013-02-01 21:40:00,33.3,13.7,29.20,WSW,245,6.9,6.9,44,0.00,CLR,,0.00,WeatherDisplay:10.37,2013-02-02 02:40:00,
2013-02-01 21:42:00,33.6,14.5,29.20,West,264,8.1,8.1,45,0.00,CLR,,0.00,WeatherDisplay:10.37,2013-02-02 02:42:00,
2013-02-01 21:43:00,33.6,14.5,29.20,West,273,8.1,8.1,45,0.00,CLR,,0.00,WeatherDisplay:10.37,2013-02-02 02:43:00,
2013-02-01 21:44:00,33.6,14.5,29.20,WSW,257,6.9,6.9,45,0.00,CLR,,0.00,WeatherDisplay:10.37,2013-02-02 02:44:00,
2013-02-01 21:45:00,33.8,15.2,29.20,South,186,6.9,6.9,46,0.00,CLR,,0.00,WeatherDisplay:10.37,2013-02-02 02:45:00,
2013-02-01 21:47:00,33.8,15.2,29.20,South,172,9.2,9.2,46,0.00,CLR,,0.00,WeatherDisplay:10.37,2013-02-02 02:47:00,
2013-02-01 21:48:00,33.8,15.2,29.20,WSW,251,9.2,9.2,46,0.00,CLR,,0.00,WeatherDisplay:10.37,2013-02-02 02:48:00,
2013-02-01 21:49:00,33.8,15.2,29.20,SW,227,13.8,13.8,46,0.00,CLR,,0.00,WeatherDisplay:10.37,2013-02-02 02:49:00,
2013-02-01 21:50:00,33.8,15.2,29.20,SW,235,11.5,11.5,46,0.00,CLR,,0.00,WeatherDisplay:10.37,2013-02-02 02:50:00,
2013-02-01 21:52:00,33.8,14.7,29.20,SSW,211,9.6,9.6,45,0.00,CLR,,0.00,WeatherDisplay:10.37,2013-02-02 02:52:00,
2013-02-01 21:53:00,33.8,14.7,29.20,SW,222,11.5,11.5,45,0.00,CLR,,0.00,WeatherDisplay:10.37,2013-02-02 02:53:00,
2013-02-01 21:54:00,33.6,14.5,29.20,West,269,5.8,5.8,45,0.00,CLR,,0.00,WeatherDisplay:10.37,2013-02-02 02:54:00,
2013-02-01 21:55:00,33.6,14.5,29.20,WSW,238,8.1,8.1,45,0.00,CLR,,0.00,WeatherDisplay:10.37,2013-02-02 02:55:00,
2013-02-01 21:57:00,33.6,14.5,29.20,West,263,4.6,4.6,45,0.00,CLR,,0.00,WeatherDisplay:10.37,2013-02-02 02:57:00,
2013-02-01 21:58:00,33.6,14.5,29.20,SW,224,7.8,7.8,45,0.00,CLR,,0.00,WeatherDisplay:10.37,2013-02-02 02:58:00,
2013-02-01 22:00:00,33.4,13.8,29.20,SW,226,8.1,8.1,44,0.00,CLR,,0.00,WeatherDisplay:10.37,2013-02-02 03:00:00,
2013-02-01 22:02:00,33.3,13.7,29.20,West,264,6.9,6.9,44,0.00,CLR,,0.00,WeatherDisplay:10.37,2013-02-02 03:02:00,
2013-02-01 22:03:00,33.3,13.7,29.20,South,191,6.9,6.9,44,0.00,CLR,,0.00,WeatherDisplay:10.37,2013-02-02 03:03:00,
2013-02-01 22:05:00,33.3,13.7,29.20,SSW,211,5.8,5.8,44,0.00,CLR,,0.00,WeatherDisplay:10.37,2013-02-02 03:05:00,
2013-02-01 22:07:00,33.3,13.7,29.20,West,274,7.4,7.4,44,0.00,CLR,,0.00,WeatherDisplay:10.37,2013-02-02 03:07:00,
2013-02-01 22:08:00,33.3,13.7,29.20,West,267,9.2,9.2,44,0.00,CLR,,0.00,WeatherDisplay:10.37,2013-02-02 03:08:00,
2013-02-01 22:10:00,33.1,13.5,29.20,WSW,252,3.5,3.5,44,0.00,CLR,,0.00,WeatherDisplay:10.37,2013-02-02 03:10:00,
2013-02-01 22:11:00,33.1,13.5,29.20,WSW,255,3.5,0.0,44,0.00,CLR,,0.00,WeatherDisplay:10.37,2013-02-02 03:11:00,
2013-02-01 22:12:00,33.1,13.5,29.20,West,278,4.6,4.6,44,0.00,CLR,,0.00,WeatherDisplay:10.37,2013-02-02 03:12:00,
2013-02-01 22:13:00,33.1,13.5,29.20,WNW,284,4.6,4.6,44,0.00,CLR,,0.00,WeatherDisplay:10.37,2013-02-02 03:13:00,
2013-02-01 22:15:00,33.1,13.5,29.20,SSW,194,8.1,8.1,44,0.00,CLR,,0.00,WeatherDisplay:10.37,2013-02-02 03:15:00,
2013-02-01 22:16:00,33.1,13.5,29.20,West,263,8.1,8.1,44,0.00,CLR,,0.00,WeatherDisplay:10.37,2013-02-02 03:16:00,
2013-02-01 22:17:00,33.1,13.5,29.20,West,268,6.9,6.9,44,0.00,CLR,,0.00,WeatherDisplay:10.37,2013-02-02 03:17:00,
2013-02-01 22:19:00,33.1,13.5,29.20,SSW,199,5.8,5.8,44,0.00,CLR,,0.00,WeatherDisplay:10.37,2013-02-02 03:19:00,
2013-02-01 22:20:00,32.9,13.3,29.20,WSW,251,6.9,6.9,44,0.00,CLR,,0.00,WeatherDisplay:10.37,2013-02-02 03:20:00,
2013-02-01 22:21:00,32.9,13.3,29.20,SSE,164,6.7,6.7,44,0.00,CLR,,0.00,WeatherDisplay:10.37,2013-02-02 03:21:00,
2013-02-01 22:22:00,32.9,13.3,29.20,West,267,9.2,9.2,44,0.00,CLR,,0.00,WeatherDisplay:10.37,2013-02-02 03:22:00,
2013-02-01 22:24:00,32.9,13.3,29.20,SW,216,6.9,6.9,44,0.00,CLR,,0.00,WeatherDisplay:10.37,2013-02-02 03:24:00,
2013-02-01 22:26:00,32.9,13.3,29.20,West,281,8.1,8.1,44,0.00,CLR,,0.00,WeatherDisplay:10.37,2013-02-02 03:26:00,
2013-02-01 22:27:00,32.7,13.2,29.20,West,262,4.6,4.6,44,0.00,CLR,,0.00,WeatherDisplay:10.37,2013-02-02 03:27:00,
2013-02-01 22:29:00,32.7,13.2,29.20,WNW,296,8.1,8.1,44,0.00,CLR,,0.00,WeatherDisplay:10.37,2013-02-02 03:29:00,
2013-02-01 22:31:00,32.7,13.2,29.20,SW,230,9.2,9.2,44,0.00,CLR,,0.00,WeatherDisplay:10.37,2013-02-02 03:31:00,
2013-02-01 22:32:00,32.7,13.2,29.20,West,263,4.6,4.6,44,0.00,CLR,,0.00,WeatherDisplay:10.37,2013-02-02 03:32:00,
2013-02-01 22:34:00,32.7,13.2,29.20,SW,236,4.6,4.6,44,0.00,CLR,,0.00,WeatherDisplay:10.37,2013-02-02 03:34:00,
2013-02-01 22:36:00,32.7,13.2,29.20,West,276,4.6,0.0,44,0.00,CLR,,0.00,WeatherDisplay:10.37,2013-02-02 03:36:00,
2013-02-01 22:37:00,32.7,13.2,29.20,SW,233,4.6,0.0,44,0.00,CLR,,0.00,WeatherDisplay:10.37,2013-02-02 03:37:00,
2013-02-01 22:39:00,32.7,13.2,29.20,SSW,201,8.3,8.3,44,0.00,CLR,,0.00,WeatherDisplay:10.37,2013-02-02 03:39:00,
2013-02-01 22:41:00,32.5,13.0,29.20,West,269,8.1,8.1,44,0.00,CLR,,0.00,WeatherDisplay:10.37,2013-02-02 03:41:00,
2013-02-01 22:42:00,32.5,13.0,29.20,West,272,8.1,8.1,44,0.00,CLR,,0.00,WeatherDisplay:10.37,2013-02-02 03:42:00,
2013-02-01 22:44:00,32.5,13.0,29.20,West,267,6.9,6.9,44,0.00,CLR,,0.00,WeatherDisplay:10.37,2013-02-02 03:44:00,
2013-02-01 22:46:00,32.5,13.0,29.20,SW,216,4.6,4.6,44,0.00,CLR,,0.00,WeatherDisplay:10.37,2013-02-02 03:46:00,
2013-02-01 22:47:00,32.5,13.0,29.20,SW,219,4.6,4.6,44,0.00,CLR,,0.00,WeatherDisplay:10.37,2013-02-02 03:47:00,
2013-02-01 22:49:00,32.5,13.0,29.20,WNW,296,5.8,5.8,44,0.00,CLR,,0.00,WeatherDisplay:10.37,2013-02-02 03:49:00,
2013-02-01 22:51:00,32.5,13.0,29.20,SW,214,10.4,10.4,44,0.00,CLR,,0.00,WeatherDisplay:10.37,2013-02-02 03:51:00,
2013-02-01 22:52:00,32.5,13.0,29.20,SSW,206,10.4,10.4,44,0.00,CLR,,0.00,WeatherDisplay:10.37,2013-02-02 03:52:00,
2013-02-01 22:54:00,32.5,13.0,29.20,WSW,252,6.9,6.9,44,0.00,CLR,,0.00,WeatherDisplay:10.37,2013-02-02 03:54:00,
2013-02-01 22:56:00,32.5,13.0,29.20,WNW,286,5.8,5.8,44,0.00,CLR,,0.00,WeatherDisplay:10.37,2013-02-02 03:56:00,
2013-02-01 22:57:00,32.5,13.0,29.20,WNW,292,5.8,5.8,44,0.00,CLR,,0.00,WeatherDisplay:10.37,2013-02-02 03:57:00,
2013-02-01 22:59:00,32.5,13.0,29.20,SW,228,9.2,9.2,44,0.00,CLR,,0.00,WeatherDisplay:10.37,2013-02-02 03:59:00,
2013-02-01 23:01:00,32.5,13.0,29.20,SW,216,8.1,0.0,44,0.00,CLR,,0.00,WeatherDisplay:10.37,2013-02-02 04:01:00,
2013-02-01 23:02:00,32.5,13.0,29.20,WSW,239,0.0,0.0,44,0.00,CLR,,0.00,WeatherDisplay:10.37,2013-02-02 04:02:00,
2013-02-01 23:03:00,32.5,13.0,29.20,WSW,241,0.0,0.0,44,0.00,CLR,,0.00,WeatherDisplay:10.37,2013-02-02 04:03:00,
2013-02-01 23:04:00,32.5,13.0,29.20,West,279,0.0,2.7,44,0.00,CLR,,0.00,WeatherDisplay:10.37,2013-02-02 04:04:00,
2013-02-01 23:07:00,32.5,13.0,29.20,WNW,292,3.5,3.5,44,0.00,CLR,,0.00,WeatherDisplay:10.37,2013-02-02 04:07:00,
2013-02-01 23:08:00,32.4,12.8,29.20,WSW,246,3.5,3.6,44,0.00,CLR,,0.00,WeatherDisplay:10.37,2013-02-02 04:08:00,
2013-02-01 23:09:00,32.4,12.8,29.20,WSW,256,3.5,0.0,44,0.00,CLR,,0.00,WeatherDisplay:10.37,2013-02-02 04:09:00,
2013-02-01 23:12:00,32.4,12.8,29.20,SSE,167,5.8,5.8,44,0.00,CLR,,0.00,WeatherDisplay:10.37,2013-02-02 04:12:00,
2013-02-01 23:13:00,32.4,12.8,29.20,South,182,6.9,6.9,44,0.00,CLR,,0.00,WeatherDisplay:10.37,2013-02-02 04:13:00,
2013-02-01 23:14:00,32.4,12.8,29.20,WSW,246,3.5,3.5,44,0.00,CLR,,0.00,WeatherDisplay:10.37,2013-02-02 04:14:00,
2013-02-01 23:17:00,32.4,12.8,29.20,WSW,249,5.8,5.8,44,0.00,CLR,,0.00,WeatherDisplay:10.37,2013-02-02 04:17:00,
2013-02-01 23:18:00,32.4,12.8,29.20,WNW,289,5.8,5.8,44,0.00,CLR,,0.00,WeatherDisplay:10.37,2013-02-02 04:18:00,
2013-02-01 23:19:00,32.4,12.3,29.20,WNW,298,4.6,4.6,43,0.00,CLR,,0.00,WeatherDisplay:10.37,2013-02-02 04:19:00,
2013-02-01 23:22:00,32.4,12.3,29.20,SW,234,6.9,6.9,43,0.00,CLR,,0.00,WeatherDisplay:10.37,2013-02-02 04:22:00,
2013-02-01 23:23:00,32.4,12.3,29.20,West,262,6.9,6.9,43,0.00,CLR,,0.00,WeatherDisplay:10.37,2013-02-02 04:23:00,
2013-02-01 23:24:00,32.4,12.3,29.20,SSW,197,4.6,4.6,43,0.00,CLR,,0.00,WeatherDisplay:10.37,2013-02-02 04:24:00,
2013-02-01 23:27:00,32.4,12.3,29.18,South,187,0.0,0.0,43,0.00,CLR,,0.00,WeatherDisplay:10.37,2013-02-02 04:27:00,
2013-02-01 23:28:00,32.4,12.3,29.18,SW,218,2.7,0.0,43,0.00,CLR,,0.00,WeatherDisplay:10.37,2013-02-02 04:28:00,
2013-02-01 23:29:00,32.4,12.3,29.18,SSW,204,3.5,3.5,43,0.00,CLR,,0.00,WeatherDisplay:10.37,2013-02-02 04:29:00,
2013-02-01 23:32:00,32.4,12.3,29.18,SSW,193,4.6,4.6,43,0.00,CLR,,0.00,WeatherDisplay:10.37,2013-02-02 04:32:00,
2013-02-01 23:33:00,32.4,12.3,29.18,SSW,197,3.5,0.0,43,0.00,CLR,,0.00,WeatherDisplay:10.37,2013-02-02 04:33:00,
2013-02-01 23:34:00,32.4,12.3,29.18,SW,218,3.5,3.5,43,0.00,CLR,,0.00,WeatherDisplay:10.37,2013-02-02 04:34:00,
2013-02-01 23:37:00,32.4,12.3,29.18,West,263,5.8,5.8,43,0.00,CLR,,0.00,WeatherDisplay:10.37,2013-02-02 04:37:00,
2013-02-01 23:38:00,32.4,12.3,29.18,SW,230,5.8,5.8,43,0.00,CLR,,0.00,WeatherDisplay:10.37,2013-02-02 04:38:00,
2013-02-01 23:39:00,32.4,12.3,29.18,SSW,211,3.5,0.0,43,0.00,CLR,,0.00,WeatherDisplay:10.37,2013-02-02 04:39:00,
2013-02-01 23:42:00,32.4,12.3,29.18,SSE,165,3.5,3.5,43,0.00,CLR,,0.00,WeatherDisplay:10.37,2013-02-02 04:42:00,
2013-02-01 23:43:00,32.4,12.3,29.18,WSW,255,6.9,6.9,43,0.00,CLR,,0.00,WeatherDisplay:10.37,2013-02-02 04:43:00,
2013-02-01 23:44:00,32.4,12.3,29.18,WSW,237,6.9,6.9,43,0.00,CLR,,0.00,WeatherDisplay:10.37,2013-02-02 04:44:00,
2013-02-01 23:47:00,32.4,12.3,29.18,SW,218,3.5,3.5,43,0.00,CLR,,0.00,WeatherDisplay:10.37,2013-02-02 04:47:00,
2013-02-01 23:48:00,32.4,12.3,29.18,SSW,211,3.6,0.0,43,0.00,CLR,,0.00,WeatherDisplay:10.37,2013-02-02 04:48:00,
2013-02-01 23:49:00,32.4,12.3,29.18,SW,230,4.9,0.0,43,0.00,CLR,,0.00,WeatherDisplay:10.37,2013-02-02 04:49:00,
2013-02-01 23:52:00,32.4,12.3,29.18,West,278,8.1,8.1,43,0.00,CLR,,0.00,WeatherDisplay:10.37,2013-02-02 04:52:00,
2013-02-01 23:53:00,32.4,12.3,29.18,WSW,250,4.6,4.6,43,0.00,CLR,,0.00,WeatherDisplay:10.37,2013-02-02 04:53:00,
2013-02-01 23:54:00,32.4,12.3,29.18,SW,232,5.4,5.4,43,0.00,CLR,,0.00,WeatherDisplay:10.37,2013-02-02 04:54:00,
2013-02-01 23:57:00,32.4,12.3,29.20,SSW,195,3.5,0.0,43,0.00,CLR,,0.00,WeatherDisplay:10.37,2013-02-02 04:57:00,
2013-02-01 23:58:00,32.2,12.2,29.20,WSW,251,3.1,3.1,43,0.00,CLR,,0.00,WeatherDisplay:10.37,2013-02-02 04:58:00,
2013-02-01 23:59:00,32.2,12.2,29.20,West,266,2.3,3.1,43,0.00,CLR,,0.00,WeatherDisplay:10.37,2013-02-02 04:59:00,